<?xml version='1.0' encoding='UTF-8'?><gpx version="1.1" creator="JPX - https://github.com/jenetics/jpx" xmlns="http://www.topografix.com/GPX/1/1"><trk><trkseg><trkpt lat="47.6677283" lon="3.8174767"><ele>168.0</ele><time>2026-04-05T13:40:08.489Z</time></trkpt><trkpt lat="47.6677483" lon="3.8175817"><ele>168.0</ele><time>2026-04-05T13:41:58.49Z</time></trkpt><trkpt lat="47.6678033" lon="3.8176617"><ele>168.0</ele><time>2026-04-05T13:42:01.485Z</time></trkpt><trkpt lat="47.6678683" lon="3.81763"><ele>168.0</ele><time>2026-04-05T13:42:03.489Z</time></trkpt><trkpt lat="47.6679433" lon="3.8175417"><ele>168.0</ele><time>2026-04-05T13:42:06.484Z</time></trkpt><trkpt lat="47.6680217" lon="3.8174783"><ele>168.0</ele><time>2026-04-05T13:42:09.487Z</time></trkpt><trkpt lat="47.6680767" lon="3.8174267"><ele>168.57142857142858</ele><time>2026-04-05T13:42:11.484Z</time></trkpt><trkpt lat="47.6681383" lon="3.8173567"><ele>169.14285714285714</ele><time>2026-04-05T13:42:13.489Z</time></trkpt><trkpt lat="47.6682083" lon="3.817295"><ele>169.71428571428572</ele><time>2026-04-05T13:42:15.485Z</time></trkpt><trkpt lat="47.6682733" lon="3.8172567"><ele>170.28571428571428</ele><time>2026-04-05T13:42:17.481Z</time></trkpt><trkpt lat="47.6683317" lon="3.81722"><ele>170.85714285714286</ele><time>2026-04-05T13:42:19.487Z</time></trkpt><trkpt lat="47.66838" lon="3.817145"><ele>171.42857142857144</ele><time>2026-04-05T13:42:21.483Z</time></trkpt><trkpt lat="47.6684" lon="3.8170417"><ele>172.0</ele><time>2026-04-05T13:42:23.48Z</time></trkpt><trkpt lat="47.6684083" lon="3.81694"><ele>172.0</ele><time>2026-04-05T13:42:25.484Z</time></trkpt><trkpt lat="47.6684017" lon="3.8168367"><ele>172.0</ele><time>2026-04-05T13:42:28.479Z</time></trkpt><trkpt lat="47.668375" lon="3.8167517"><ele>172.0</ele><time>2026-04-05T13:42:49.484Z</time></trkpt><trkpt lat="47.6683183" lon="3.8165883"><ele>172.0</ele><time>2026-04-05T13:42:51.488Z</time></trkpt><trkpt lat="47.6682867" lon="3.816485"><ele>172.0</ele><time>2026-04-05T13:42:52.487Z</time></trkpt><trkpt lat="47.6682517" lon="3.81637"><ele>172.0</ele><time>2026-04-05T13:42:53.486Z</time></trkpt><trkpt lat="47.6682167" lon="3.8162383"><ele>172.0</ele><time>2026-04-05T13:42:54.484Z</time></trkpt><trkpt lat="47.6681867" lon="3.8161"><ele>172.0</ele><time>2026-04-05T13:42:55.482Z</time></trkpt><trkpt lat="47.66816" lon="3.815965"><ele>172.0</ele><time>2026-04-05T13:42:56.48Z</time></trkpt><trkpt lat="47.668135" lon="3.8158333"><ele>172.0</ele><time>2026-04-05T13:42:57.487Z</time></trkpt><trkpt lat="47.6681033" lon="3.8156983"><ele>172.0</ele><time>2026-04-05T13:42:58.485Z</time></trkpt><trkpt lat="47.6680667" lon="3.815555"><ele>173.2</ele><time>2026-04-05T13:42:59.484Z</time></trkpt><trkpt lat="47.66803" lon="3.8154033"><ele>174.39999999999998</ele><time>2026-04-05T13:43:00.482Z</time></trkpt><trkpt lat="47.6679933" lon="3.8152467"><ele>175.60000000000002</ele><time>2026-04-05T13:43:01.48Z</time></trkpt><trkpt lat="47.6679583" lon="3.81509"><ele>176.8</ele><time>2026-04-05T13:43:02.487Z</time></trkpt><trkpt lat="47.6679233" lon="3.8149367"><ele>178.0</ele><time>2026-04-05T13:43:03.484Z</time></trkpt><trkpt lat="47.6678983" lon="3.8147933"><ele>180.0</ele><time>2026-04-05T13:43:04.483Z</time></trkpt><trkpt lat="47.6678733" lon="3.8146533"><ele>182.0</ele><time>2026-04-05T13:43:05.481Z</time></trkpt><trkpt lat="47.6678617" lon="3.8145133"><ele>184.0</ele><time>2026-04-05T13:43:06.48Z</time></trkpt><trkpt lat="47.6678567" lon="3.8143767"><ele>186.0</ele><time>2026-04-05T13:43:07.478Z</time></trkpt><trkpt lat="47.667855" lon="3.81424"><ele>188.0</ele><time>2026-04-05T13:43:08.493Z</time></trkpt><trkpt lat="47.6678567" lon="3.8141033"><ele>189.8</ele><time>2026-04-05T13:43:09.49Z</time></trkpt><trkpt lat="47.6678617" lon="3.8139633"><ele>191.60000000000002</ele><time>2026-04-05T13:43:10.488Z</time></trkpt><trkpt lat="47.6678667" lon="3.8138267"><ele>193.39999999999998</ele><time>2026-04-05T13:43:11.488Z</time></trkpt><trkpt lat="47.6678733" lon="3.8136933"><ele>195.2</ele><time>2026-04-05T13:43:12.486Z</time></trkpt><trkpt lat="47.6678783" lon="3.81356"><ele>197.0</ele><time>2026-04-05T13:43:13.492Z</time></trkpt><trkpt lat="47.6678817" lon="3.8134283"><ele>198.00000000000003</ele><time>2026-04-05T13:43:14.491Z</time></trkpt><trkpt lat="47.66789" lon="3.8132967"><ele>199.0</ele><time>2026-04-05T13:43:15.489Z</time></trkpt><trkpt lat="47.6678967" lon="3.8131683"><ele>200.0</ele><time>2026-04-05T13:43:16.487Z</time></trkpt><trkpt lat="47.6679083" lon="3.8130417"><ele>201.0</ele><time>2026-04-05T13:43:17.486Z</time></trkpt><trkpt lat="47.6679167" lon="3.812915"><ele>202.00000000000003</ele><time>2026-04-05T13:43:18.484Z</time></trkpt><trkpt lat="47.667925" lon="3.81279"><ele>203.0</ele><time>2026-04-05T13:43:19.49Z</time></trkpt><trkpt lat="47.6679233" lon="3.8126633"><ele>204.0</ele><time>2026-04-05T13:43:20.489Z</time></trkpt><trkpt lat="47.6679083" lon="3.8125333"><ele>205.0</ele><time>2026-04-05T13:43:21.487Z</time></trkpt><trkpt lat="47.66788" lon="3.8124017"><ele>206.0</ele><time>2026-04-05T13:43:22.484Z</time></trkpt><trkpt lat="47.667845" lon="3.8122733"><ele>207.0</ele><time>2026-04-05T13:43:23.483Z</time></trkpt><trkpt lat="47.6678067" lon="3.8121467"><ele>208.0</ele><time>2026-04-05T13:43:24.49Z</time></trkpt><trkpt lat="47.6677733" lon="3.8120217"><ele>206.16666666666666</ele><time>2026-04-05T13:43:25.488Z</time></trkpt><trkpt lat="47.66775" lon="3.8119017"><ele>204.33333333333331</ele><time>2026-04-05T13:43:26.487Z</time></trkpt><trkpt lat="47.6677333" lon="3.81178"><ele>202.5</ele><time>2026-04-05T13:43:27.485Z</time></trkpt><trkpt lat="47.66772" lon="3.8116583"><ele>200.66666666666669</ele><time>2026-04-05T13:43:28.482Z</time></trkpt><trkpt lat="47.667705" lon="3.81153"><ele>198.83333333333334</ele><time>2026-04-05T13:43:29.48Z</time></trkpt><trkpt lat="47.66769" lon="3.811395"><ele>197.0</ele><time>2026-04-05T13:43:30.488Z</time></trkpt><trkpt lat="47.6676717" lon="3.8112517"><ele>197.0</ele><time>2026-04-05T13:43:31.486Z</time></trkpt><trkpt lat="47.6676517" lon="3.8111067"><ele>197.0</ele><time>2026-04-05T13:43:32.484Z</time></trkpt><trkpt lat="47.6676317" lon="3.8109583"><ele>197.0</ele><time>2026-04-05T13:43:33.483Z</time></trkpt><trkpt lat="47.6676133" lon="3.810805"><ele>197.0</ele><time>2026-04-05T13:43:34.481Z</time></trkpt><trkpt lat="47.667595" lon="3.8106517"><ele>197.0</ele><time>2026-04-05T13:43:35.486Z</time></trkpt><trkpt lat="47.6675717" lon="3.8104933"><ele>198.0</ele><time>2026-04-05T13:43:36.486Z</time></trkpt><trkpt lat="47.6675517" lon="3.8103367"><ele>199.0</ele><time>2026-04-05T13:43:37.483Z</time></trkpt><trkpt lat="47.6675333" lon="3.810185"><ele>200.0</ele><time>2026-04-05T13:43:38.482Z</time></trkpt><trkpt lat="47.6675167" lon="3.810035"><ele>201.0</ele><time>2026-04-05T13:43:39.48Z</time></trkpt><trkpt lat="47.6675" lon="3.80989"><ele>202.0</ele><time>2026-04-05T13:43:40.479Z</time></trkpt><trkpt lat="47.6674883" lon="3.809745"><ele>202.8</ele><time>2026-04-05T13:43:41.485Z</time></trkpt><trkpt lat="47.6674767" lon="3.8096033"><ele>203.6</ele><time>2026-04-05T13:43:42.484Z</time></trkpt><trkpt lat="47.66747" lon="3.8094633"><ele>204.4</ele><time>2026-04-05T13:43:43.482Z</time></trkpt><trkpt lat="47.6674633" lon="3.8093267"><ele>205.20000000000002</ele><time>2026-04-05T13:43:44.479Z</time></trkpt><trkpt lat="47.6674567" lon="3.8091917"><ele>206.0</ele><time>2026-04-05T13:43:45.478Z</time></trkpt><trkpt lat="47.66745" lon="3.8090583"><ele>206.83333333333334</ele><time>2026-04-05T13:43:46.493Z</time></trkpt><trkpt lat="47.6674433" lon="3.8089267"><ele>207.66666666666669</ele><time>2026-04-05T13:43:47.492Z</time></trkpt><trkpt lat="47.667435" lon="3.808795"><ele>208.5</ele><time>2026-04-05T13:43:48.49Z</time></trkpt><trkpt lat="47.6674267" lon="3.808665"><ele>209.33333333333331</ele><time>2026-04-05T13:43:49.488Z</time></trkpt><trkpt lat="47.6674167" lon="3.8085433"><ele>210.16666666666666</ele><time>2026-04-05T13:43:50.485Z</time></trkpt><trkpt lat="47.6674117" lon="3.8084367"><ele>211.0</ele><time>2026-04-05T13:43:51.485Z</time></trkpt><trkpt lat="47.6674083" lon="3.80834"><ele>212.75</ele><time>2026-04-05T13:43:52.491Z</time></trkpt><trkpt lat="47.667425" lon="3.8081633"><ele>214.5</ele><time>2026-04-05T13:43:54.487Z</time></trkpt><trkpt lat="47.667475" lon="3.8080017"><ele>216.25</ele><time>2026-04-05T13:43:56.483Z</time></trkpt><trkpt lat="47.667555" lon="3.8078883"><ele>218.0</ele><time>2026-04-05T13:43:58.489Z</time></trkpt><trkpt lat="47.6676633" lon="3.8078667"><ele>218.0</ele><time>2026-04-05T13:44:00.486Z</time></trkpt><trkpt lat="47.6677667" lon="3.8079217"><ele>218.0</ele><time>2026-04-05T13:44:02.482Z</time></trkpt><trkpt lat="47.6678683" lon="3.80802"><ele>218.0</ele><time>2026-04-05T13:44:04.487Z</time></trkpt><trkpt lat="47.6679717" lon="3.808105"><ele>218.0</ele><time>2026-04-05T13:44:06.483Z</time></trkpt><trkpt lat="47.6680783" lon="3.8081883"><ele>218.33333333333334</ele><time>2026-04-05T13:44:08.488Z</time></trkpt><trkpt lat="47.6681833" lon="3.8082717"><ele>218.66666666666669</ele><time>2026-04-05T13:44:10.484Z</time></trkpt><trkpt lat="47.6682867" lon="3.8083567"><ele>219.0</ele><time>2026-04-05T13:44:12.48Z</time></trkpt><trkpt lat="47.6683433" lon="3.8084"><ele>219.33333333333331</ele><time>2026-04-05T13:44:13.479Z</time></trkpt><trkpt lat="47.6684067" lon="3.8084483"><ele>219.66666666666666</ele><time>2026-04-05T13:44:14.486Z</time></trkpt><trkpt lat="47.6684717" lon="3.8084983"><ele>220.0</ele><time>2026-04-05T13:44:15.483Z</time></trkpt><trkpt lat="47.66854" lon="3.8085467"><ele>219.99999999999997</ele><time>2026-04-05T13:44:16.483Z</time></trkpt><trkpt lat="47.6686083" lon="3.8085983"><ele>220.0</ele><time>2026-04-05T13:44:17.48Z</time></trkpt><trkpt lat="47.6686733" lon="3.8086567"><ele>220.0</ele><time>2026-04-05T13:44:18.479Z</time></trkpt><trkpt lat="47.6687367" lon="3.80872"><ele>220.0</ele><time>2026-04-05T13:44:19.486Z</time></trkpt><trkpt lat="47.6687967" lon="3.80879"><ele>219.99999999999997</ele><time>2026-04-05T13:44:20.484Z</time></trkpt><trkpt lat="47.668855" lon="3.8088667"><ele>220.0</ele><time>2026-04-05T13:44:21.482Z</time></trkpt><trkpt lat="47.66891" lon="3.80895"><ele>220.83333333333331</ele><time>2026-04-05T13:44:22.48Z</time></trkpt><trkpt lat="47.6689617" lon="3.8090383"><ele>221.66666666666666</ele><time>2026-04-05T13:44:23.479Z</time></trkpt><trkpt lat="47.6690117" lon="3.80913"><ele>222.5</ele><time>2026-04-05T13:44:24.476Z</time></trkpt><trkpt lat="47.6690583" lon="3.809225"><ele>223.33333333333331</ele><time>2026-04-05T13:44:25.491Z</time></trkpt><trkpt lat="47.6691083" lon="3.8093167"><ele>224.16666666666666</ele><time>2026-04-05T13:44:26.49Z</time></trkpt><trkpt lat="47.6691567" lon="3.8094117"><ele>225.0</ele><time>2026-04-05T13:44:27.488Z</time></trkpt><trkpt lat="47.6692017" lon="3.8095083"><ele>225.16666666666666</ele><time>2026-04-05T13:44:28.486Z</time></trkpt><trkpt lat="47.66925" lon="3.8096067"><ele>225.33333333333331</ele><time>2026-04-05T13:44:29.485Z</time></trkpt><trkpt lat="47.6693" lon="3.809705"><ele>225.5</ele><time>2026-04-05T13:44:30.492Z</time></trkpt><trkpt lat="47.66935" lon="3.8098033"><ele>225.66666666666666</ele><time>2026-04-05T13:44:31.489Z</time></trkpt><trkpt lat="47.6694" lon="3.809905"><ele>225.83333333333331</ele><time>2026-04-05T13:44:32.488Z</time></trkpt><trkpt lat="47.66946" lon="3.810005"><ele>226.0</ele><time>2026-04-05T13:44:33.486Z</time></trkpt><trkpt lat="47.669515" lon="3.81011"><ele>225.99999999999997</ele><time>2026-04-05T13:44:34.485Z</time></trkpt><trkpt lat="47.6695567" lon="3.8102117"><ele>226.0</ele><time>2026-04-05T13:44:35.482Z</time></trkpt><trkpt lat="47.669595" lon="3.8103067"><ele>226.0</ele><time>2026-04-05T13:44:36.488Z</time></trkpt><trkpt lat="47.669635" lon="3.8103917"><ele>226.0</ele><time>2026-04-05T13:44:37.487Z</time></trkpt><trkpt lat="47.6696717" lon="3.8104683"><ele>225.99999999999997</ele><time>2026-04-05T13:44:38.485Z</time></trkpt><trkpt lat="47.6697533" lon="3.8105883"><ele>226.0</ele><time>2026-04-05T13:44:40.481Z</time></trkpt><trkpt lat="47.6698533" lon="3.8106483"><ele>226.0</ele><time>2026-04-05T13:44:42.486Z</time></trkpt><trkpt lat="47.6699667" lon="3.8106417"><ele>226.00000000000003</ele><time>2026-04-05T13:44:44.483Z</time></trkpt><trkpt lat="47.6700467" lon="3.8105933"><ele>226.00000000000003</ele><time>2026-04-05T13:44:46.479Z</time></trkpt><trkpt lat="47.6701417" lon="3.8105267"><ele>226.0</ele><time>2026-04-05T13:44:48.485Z</time></trkpt><trkpt lat="47.67026" lon="3.8104617"><ele>226.0</ele><time>2026-04-05T13:44:50.481Z</time></trkpt><trkpt lat="47.6703217" lon="3.81043"><ele>225.99999999999997</ele><time>2026-04-05T13:44:51.48Z</time></trkpt><trkpt lat="47.670385" lon="3.810395"><ele>226.0</ele><time>2026-04-05T13:44:52.487Z</time></trkpt><trkpt lat="47.6704533" lon="3.8103583"><ele>226.0</ele><time>2026-04-05T13:44:53.485Z</time></trkpt><trkpt lat="47.670525" lon="3.8103217"><ele>226.0</ele><time>2026-04-05T13:44:54.482Z</time></trkpt><trkpt lat="47.6705983" lon="3.8102833"><ele>225.99999999999997</ele><time>2026-04-05T13:44:55.481Z</time></trkpt><trkpt lat="47.6706717" lon="3.8102383"><ele>226.0</ele><time>2026-04-05T13:44:56.479Z</time></trkpt><trkpt lat="47.6707483" lon="3.8101867"><ele>225.83333333333331</ele><time>2026-04-05T13:44:57.478Z</time></trkpt><trkpt lat="47.670825" lon="3.810135"><ele>225.66666666666666</ele><time>2026-04-05T13:44:58.493Z</time></trkpt><trkpt lat="47.6709" lon="3.8100817"><ele>225.5</ele><time>2026-04-05T13:44:59.491Z</time></trkpt><trkpt lat="47.6709683" lon="3.8100267"><ele>225.33333333333331</ele><time>2026-04-05T13:45:00.489Z</time></trkpt><trkpt lat="47.6710267" lon="3.8099767"><ele>225.16666666666666</ele><time>2026-04-05T13:45:01.487Z</time></trkpt><trkpt lat="47.6711233" lon="3.8098833"><ele>225.0</ele><time>2026-04-05T13:45:03.492Z</time></trkpt><trkpt lat="47.6712017" lon="3.8098033"><ele>225.0</ele><time>2026-04-05T13:45:05.489Z</time></trkpt><trkpt lat="47.6712833" lon="3.80972"><ele>225.0</ele><time>2026-04-05T13:45:07.484Z</time></trkpt><trkpt lat="47.6713683" lon="3.80963"><ele>225.0</ele><time>2026-04-05T13:45:09.49Z</time></trkpt><trkpt lat="47.6714567" lon="3.809525"><ele>225.0</ele><time>2026-04-05T13:45:11.487Z</time></trkpt><trkpt lat="47.6715433" lon="3.809415"><ele>225.0</ele><time>2026-04-05T13:45:13.483Z</time></trkpt><trkpt lat="47.6716283" lon="3.8093017"><ele>224.75</ele><time>2026-04-05T13:45:15.488Z</time></trkpt><trkpt lat="47.6717083" lon="3.80919"><ele>224.5</ele><time>2026-04-05T13:45:17.484Z</time></trkpt><trkpt lat="47.6718117" lon="3.809065"><ele>224.25</ele><time>2026-04-05T13:45:25.487Z</time></trkpt><trkpt lat="47.67189" lon="3.8089633"><ele>224.0</ele><time>2026-04-05T13:45:27.483Z</time></trkpt><trkpt lat="47.6719833" lon="3.8088467"><ele>224.75</ele><time>2026-04-05T13:45:29.48Z</time></trkpt><trkpt lat="47.6720767" lon="3.8087333"><ele>225.5</ele><time>2026-04-05T13:45:31.484Z</time></trkpt><trkpt lat="47.6721733" lon="3.8086183"><ele>226.25</ele><time>2026-04-05T13:45:33.481Z</time></trkpt><trkpt lat="47.6722767" lon="3.8085183"><ele>227.0</ele><time>2026-04-05T13:45:35.478Z</time></trkpt><trkpt lat="47.67238" lon="3.808465"><ele>227.0</ele><time>2026-04-05T13:45:37.491Z</time></trkpt><trkpt lat="47.6724833" lon="3.808465"><ele>227.0</ele><time>2026-04-05T13:45:39.488Z</time></trkpt><trkpt lat="47.67259" lon="3.808485"><ele>227.0</ele><time>2026-04-05T13:45:41.484Z</time></trkpt><trkpt lat="47.6726933" lon="3.8085067"><ele>227.0</ele><time>2026-04-05T13:45:43.488Z</time></trkpt><trkpt lat="47.672785" lon="3.808535"><ele>227.0</ele><time>2026-04-05T13:45:45.486Z</time></trkpt><trkpt lat="47.67288" lon="3.8085567"><ele>227.50000000000003</ele><time>2026-04-05T13:45:47.491Z</time></trkpt><trkpt lat="47.6729683" lon="3.8085783"><ele>228.0</ele><time>2026-04-05T13:45:49.487Z</time></trkpt><trkpt lat="47.673055" lon="3.8085983"><ele>228.5</ele><time>2026-04-05T13:45:51.484Z</time></trkpt><trkpt lat="47.673135" lon="3.808635"><ele>229.0</ele><time>2026-04-05T13:45:53.488Z</time></trkpt><trkpt lat="47.6732133" lon="3.80867"><ele>229.50000000000003</ele><time>2026-04-05T13:45:55.485Z</time></trkpt><trkpt lat="47.673305" lon="3.8086883"><ele>230.0</ele><time>2026-04-05T13:45:57.481Z</time></trkpt><trkpt lat="47.6733967" lon="3.8087017"><ele>230.00000000000003</ele><time>2026-04-05T13:45:59.486Z</time></trkpt><trkpt lat="47.673485" lon="3.8087167"><ele>230.0</ele><time>2026-04-05T13:46:01.483Z</time></trkpt><trkpt lat="47.67357" lon="3.8087333"><ele>230.0</ele><time>2026-04-05T13:46:03.479Z</time></trkpt><trkpt lat="47.6736517" lon="3.8087417"><ele>230.0</ele><time>2026-04-05T13:46:05.484Z</time></trkpt><trkpt lat="47.6737317" lon="3.8087533"><ele>230.00000000000003</ele><time>2026-04-05T13:46:07.481Z</time></trkpt><trkpt lat="47.67381" lon="3.8087683"><ele>230.0</ele><time>2026-04-05T13:46:09.485Z</time></trkpt><trkpt lat="47.67389" lon="3.8087867"><ele>230.66666666666669</ele><time>2026-04-05T13:46:11.482Z</time></trkpt><trkpt lat="47.6739667" lon="3.8088067"><ele>231.33333333333334</ele><time>2026-04-05T13:46:13.479Z</time></trkpt><trkpt lat="47.67404" lon="3.8088317"><ele>232.0</ele><time>2026-04-05T13:46:15.492Z</time></trkpt><trkpt lat="47.6741167" lon="3.8088533"><ele>232.66666666666669</ele><time>2026-04-05T13:46:17.488Z</time></trkpt><trkpt lat="47.6741933" lon="3.8088767"><ele>233.33333333333334</ele><time>2026-04-05T13:46:19.485Z</time></trkpt><trkpt lat="47.6742717" lon="3.8089"><ele>234.0</ele><time>2026-04-05T13:46:21.49Z</time></trkpt><trkpt lat="47.6743633" lon="3.808915"><ele>234.0</ele><time>2026-04-05T13:46:23.486Z</time></trkpt><trkpt lat="47.6744333" lon="3.8089617"><ele>234.0</ele><time>2026-04-05T13:46:25.483Z</time></trkpt><trkpt lat="47.6745117" lon="3.8089967"><ele>234.0</ele><time>2026-04-05T13:46:27.488Z</time></trkpt><trkpt lat="47.674595" lon="3.8090233"><ele>234.0</ele><time>2026-04-05T13:46:29.484Z</time></trkpt><trkpt lat="47.6746833" lon="3.80906"><ele>234.0</ele><time>2026-04-05T13:46:31.489Z</time></trkpt><trkpt lat="47.6747683" lon="3.8090967"><ele>234.0</ele><time>2026-04-05T13:46:33.485Z</time></trkpt><trkpt lat="47.67485" lon="3.8091267"><ele>235.33333333333334</ele><time>2026-04-05T13:46:35.482Z</time></trkpt><trkpt lat="47.67493" lon="3.8091567"><ele>236.66666666666669</ele><time>2026-04-05T13:46:37.486Z</time></trkpt><trkpt lat="47.67501" lon="3.8091883"><ele>238.0</ele><time>2026-04-05T13:46:39.482Z</time></trkpt><trkpt lat="47.6750917" lon="3.80922"><ele>239.33333333333334</ele><time>2026-04-05T13:46:41.48Z</time></trkpt><trkpt lat="47.6751783" lon="3.809255"><ele>240.66666666666669</ele><time>2026-04-05T13:46:43.485Z</time></trkpt><trkpt lat="47.6752667" lon="3.8092883"><ele>242.0</ele><time>2026-04-05T13:46:45.481Z</time></trkpt><trkpt lat="47.6753533" lon="3.8093117"><ele>241.6</ele><time>2026-04-05T13:46:47.494Z</time></trkpt><trkpt lat="47.6754433" lon="3.80934"><ele>241.2</ele><time>2026-04-05T13:46:49.491Z</time></trkpt><trkpt lat="47.67554" lon="3.80937"><ele>240.8</ele><time>2026-04-05T13:46:51.479Z</time></trkpt><trkpt lat="47.675635" lon="3.8094"><ele>240.4</ele><time>2026-04-05T13:46:53.492Z</time></trkpt><trkpt lat="47.6757267" lon="3.80943"><ele>240.0</ele><time>2026-04-05T13:46:55.488Z</time></trkpt><trkpt lat="47.675825" lon="3.809465"><ele>240.0</ele><time>2026-04-05T13:46:57.484Z</time></trkpt><trkpt lat="47.67593" lon="3.8094917"><ele>240.0</ele><time>2026-04-05T13:46:59.49Z</time></trkpt><trkpt lat="47.6760317" lon="3.8095183"><ele>240.0</ele><time>2026-04-05T13:47:01.487Z</time></trkpt><trkpt lat="47.67613" lon="3.8095483"><ele>240.0</ele><time>2026-04-05T13:47:03.482Z</time></trkpt><trkpt lat="47.6762233" lon="3.8095767"><ele>240.0</ele><time>2026-04-05T13:47:05.488Z</time></trkpt><trkpt lat="47.6763067" lon="3.8095983"><ele>240.66666666666666</ele><time>2026-04-05T13:47:07.484Z</time></trkpt><trkpt lat="47.676385" lon="3.8096217"><ele>241.33333333333331</ele><time>2026-04-05T13:47:10.488Z</time></trkpt><trkpt lat="47.6764633" lon="3.8096217"><ele>242.0</ele><time>2026-04-05T13:47:13.482Z</time></trkpt><trkpt lat="47.67652" lon="3.8095683"><ele>242.66666666666666</ele><time>2026-04-05T13:47:18.482Z</time></trkpt><trkpt lat="47.6765533" lon="3.8094333"><ele>243.33333333333331</ele><time>2026-04-05T13:47:27.491Z</time></trkpt><trkpt lat="47.676585" lon="3.8093367"><ele>244.0</ele><time>2026-04-05T13:47:32.491Z</time></trkpt><trkpt lat="47.6766183" lon="3.80924"><ele>244.0</ele><time>2026-04-05T13:47:35.486Z</time></trkpt><trkpt lat="47.676645" lon="3.8091417"><ele>244.0</ele><time>2026-04-05T13:47:38.489Z</time></trkpt><trkpt lat="47.6766533" lon="3.8090483"><ele>244.0</ele><time>2026-04-05T13:47:41.483Z</time></trkpt></trkseg><trkseg><trkpt lat="47.6765933" lon="3.8091167"><ele>243.99999999999997</ele><time>2026-04-05T16:04:02.481Z</time></trkpt><trkpt lat="47.67657" lon="3.809205"><ele>244.0</ele><time>2026-04-05T16:04:05.484Z</time></trkpt><trkpt lat="47.6765433" lon="3.8093017"><ele>243.99999999999997</ele><time>2026-04-05T16:04:08.479Z</time></trkpt><trkpt lat="47.676505" lon="3.8093783"><ele>243.99999999999997</ele><time>2026-04-05T16:04:12.479Z</time></trkpt><trkpt lat="47.6765083" lon="3.8094767"><ele>244.0</ele><time>2026-04-05T16:04:17.488Z</time></trkpt><trkpt lat="47.6764783" lon="3.8095983"><ele>243.99999999999997</ele><time>2026-04-05T16:04:34.484Z</time></trkpt><trkpt lat="47.676405" lon="3.8096"><ele>243.99999999999997</ele><time>2026-04-05T16:04:39.483Z</time></trkpt><trkpt lat="47.6763283" lon="3.8095733"><ele>243.99999999999997</ele><time>2026-04-05T16:04:43.484Z</time></trkpt><trkpt lat="47.676245" lon="3.809545"><ele>244.0</ele><time>2026-04-05T16:04:46.479Z</time></trkpt><trkpt lat="47.676155" lon="3.809525"><ele>244.0</ele><time>2026-04-05T16:04:49.482Z</time></trkpt><trkpt lat="47.6760917" lon="3.8095217"><ele>244.0</ele><time>2026-04-05T16:04:51.479Z</time></trkpt><trkpt lat="47.676025" lon="3.8095083"><ele>243.99999999999997</ele><time>2026-04-05T16:04:53.492Z</time></trkpt><trkpt lat="47.6759533" lon="3.8094883"><ele>244.0</ele><time>2026-04-05T16:04:55.489Z</time></trkpt><trkpt lat="47.6758833" lon="3.8094717"><ele>243.99999999999997</ele><time>2026-04-05T16:04:57.485Z</time></trkpt><trkpt lat="47.6757967" lon="3.80945"><ele>244.0</ele><time>2026-04-05T16:05:00.488Z</time></trkpt><trkpt lat="47.67571" lon="3.80941"><ele>244.0</ele><time>2026-04-05T16:05:03.483Z</time></trkpt><trkpt lat="47.67563" lon="3.8093783"><ele>244.0</ele><time>2026-04-05T16:05:06.485Z</time></trkpt><trkpt lat="47.67556" lon="3.8093633"><ele>243.99999999999997</ele><time>2026-04-05T16:05:08.483Z</time></trkpt><trkpt lat="47.6754867" lon="3.8093317"><ele>244.0</ele><time>2026-04-05T16:05:10.488Z</time></trkpt><trkpt lat="47.6754133" lon="3.80931"><ele>243.99999999999997</ele><time>2026-04-05T16:05:12.483Z</time></trkpt><trkpt lat="47.67534" lon="3.8092867"><ele>244.0</ele><time>2026-04-05T16:05:14.481Z</time></trkpt><trkpt lat="47.6752717" lon="3.8092567"><ele>244.0</ele><time>2026-04-05T16:05:16.485Z</time></trkpt><trkpt lat="47.6752033" lon="3.8092267"><ele>244.0</ele><time>2026-04-05T16:05:18.482Z</time></trkpt><trkpt lat="47.67513" lon="3.8091967"><ele>243.99999999999997</ele><time>2026-04-05T16:05:20.487Z</time></trkpt><trkpt lat="47.6750483" lon="3.8091783"><ele>244.0</ele><time>2026-04-05T16:05:22.482Z</time></trkpt><trkpt lat="47.6749667" lon="3.809155"><ele>243.66666666666666</ele><time>2026-04-05T16:05:24.48Z</time></trkpt><trkpt lat="47.6748883" lon="3.8091183"><ele>243.33333333333331</ele><time>2026-04-05T16:05:26.484Z</time></trkpt><trkpt lat="47.67481" lon="3.809085"><ele>243.0</ele><time>2026-04-05T16:05:28.48Z</time></trkpt><trkpt lat="47.6747217" lon="3.8090617"><ele>242.66666666666669</ele><time>2026-04-05T16:05:31.493Z</time></trkpt><trkpt lat="47.6746333" lon="3.8090283"><ele>242.33333333333334</ele><time>2026-04-05T16:05:34.487Z</time></trkpt><trkpt lat="47.67455" lon="3.8090017"><ele>242.0</ele><time>2026-04-05T16:05:37.49Z</time></trkpt><trkpt lat="47.6744567" lon="3.8089667"><ele>240.85714285714283</ele><time>2026-04-05T16:05:40.484Z</time></trkpt><trkpt lat="47.67439" lon="3.8089333"><ele>239.7142857142857</ele><time>2026-04-05T16:05:42.49Z</time></trkpt><trkpt lat="47.674325" lon="3.8088967"><ele>238.57142857142856</ele><time>2026-04-05T16:05:44.487Z</time></trkpt><trkpt lat="47.6742583" lon="3.80887"><ele>237.42857142857144</ele><time>2026-04-05T16:05:46.483Z</time></trkpt><trkpt lat="47.6741867" lon="3.808845"><ele>236.2857142857143</ele><time>2026-04-05T16:05:48.488Z</time></trkpt><trkpt lat="47.6741183" lon="3.8088133"><ele>235.14285714285717</ele><time>2026-04-05T16:05:50.484Z</time></trkpt><trkpt lat="47.6740433" lon="3.8087867"><ele>234.0</ele><time>2026-04-05T16:05:52.481Z</time></trkpt><trkpt lat="47.6739717" lon="3.80877"><ele>234.0</ele><time>2026-04-05T16:05:54.485Z</time></trkpt><trkpt lat="47.6738967" lon="3.8087517"><ele>234.00000000000003</ele><time>2026-04-05T16:05:56.481Z</time></trkpt><trkpt lat="47.673825" lon="3.8087283"><ele>234.0</ele><time>2026-04-05T16:05:58.479Z</time></trkpt><trkpt lat="47.673755" lon="3.8087083"><ele>234.0</ele><time>2026-04-05T16:06:00.484Z</time></trkpt><trkpt lat="47.6736833" lon="3.8087017"><ele>234.00000000000003</ele><time>2026-04-05T16:06:02.479Z</time></trkpt><trkpt lat="47.6736067" lon="3.80869"><ele>234.0</ele><time>2026-04-05T16:06:04.493Z</time></trkpt><trkpt lat="47.6735367" lon="3.8086817"><ele>234.0</ele><time>2026-04-05T16:06:06.489Z</time></trkpt><trkpt lat="47.673445" lon="3.8086683"><ele>233.33333333333334</ele><time>2026-04-05T16:06:09.476Z</time></trkpt><trkpt lat="47.6733733" lon="3.8086533"><ele>232.66666666666669</ele><time>2026-04-05T16:06:11.489Z</time></trkpt><trkpt lat="47.673295" lon="3.808635"><ele>232.0</ele><time>2026-04-05T16:06:13.486Z</time></trkpt><trkpt lat="47.6732217" lon="3.8086183"><ele>231.33333333333334</ele><time>2026-04-05T16:06:15.491Z</time></trkpt><trkpt lat="47.6731467" lon="3.8086033"><ele>230.66666666666669</ele><time>2026-04-05T16:06:17.487Z</time></trkpt><trkpt lat="47.67307" lon="3.8085833"><ele>230.0</ele><time>2026-04-05T16:06:19.483Z</time></trkpt><trkpt lat="47.6729867" lon="3.8085617"><ele>230.0</ele><time>2026-04-05T16:06:21.489Z</time></trkpt><trkpt lat="47.6729017" lon="3.8085417"><ele>230.0</ele><time>2026-04-05T16:06:23.485Z</time></trkpt><trkpt lat="47.6728117" lon="3.8085183"><ele>230.0</ele><time>2026-04-05T16:06:25.482Z</time></trkpt><trkpt lat="47.6727167" lon="3.8085"><ele>230.0</ele><time>2026-04-05T16:06:27.487Z</time></trkpt><trkpt lat="47.672625" lon="3.8084767"><ele>230.0</ele><time>2026-04-05T16:06:29.482Z</time></trkpt><trkpt lat="47.672535" lon="3.8084583"><ele>229.66666666666669</ele><time>2026-04-05T16:06:31.48Z</time></trkpt><trkpt lat="47.6724483" lon="3.8084467"><ele>229.33333333333334</ele><time>2026-04-05T16:06:33.483Z</time></trkpt><trkpt lat="47.6723683" lon="3.80844"><ele>229.0</ele><time>2026-04-05T16:06:35.481Z</time></trkpt><trkpt lat="47.6722783" lon="3.8084483"><ele>228.66666666666669</ele><time>2026-04-05T16:06:38.484Z</time></trkpt><trkpt lat="47.6722133" lon="3.8085033"><ele>228.33333333333334</ele><time>2026-04-05T16:06:40.481Z</time></trkpt><trkpt lat="47.6721467" lon="3.8085767"><ele>228.0</ele><time>2026-04-05T16:06:42.477Z</time></trkpt><trkpt lat="47.6720767" lon="3.80865"><ele>227.8</ele><time>2026-04-05T16:06:44.49Z</time></trkpt><trkpt lat="47.672" lon="3.808725"><ele>227.60000000000002</ele><time>2026-04-05T16:06:46.487Z</time></trkpt><trkpt lat="47.6719267" lon="3.80881"><ele>227.39999999999998</ele><time>2026-04-05T16:06:48.492Z</time></trkpt><trkpt lat="47.6718517" lon="3.8089033"><ele>227.2</ele><time>2026-04-05T16:06:50.487Z</time></trkpt><trkpt lat="47.6717733" lon="3.8090083"><ele>227.0</ele><time>2026-04-05T16:06:52.485Z</time></trkpt><trkpt lat="47.6716933" lon="3.80912"><ele>226.5</ele><time>2026-04-05T16:06:54.49Z</time></trkpt><trkpt lat="47.6716067" lon="3.80924"><ele>226.0</ele><time>2026-04-05T16:06:56.485Z</time></trkpt><trkpt lat="47.67152" lon="3.8093667"><ele>225.5</ele><time>2026-04-05T16:06:58.482Z</time></trkpt><trkpt lat="47.6714383" lon="3.8094883"><ele>225.0</ele><time>2026-04-05T16:07:00.486Z</time></trkpt><trkpt lat="47.6713633" lon="3.8096083"><ele>225.00000000000003</ele><time>2026-04-05T16:07:02.484Z</time></trkpt><trkpt lat="47.6712867" lon="3.8097217"><ele>225.0</ele><time>2026-04-05T16:07:04.48Z</time></trkpt><trkpt lat="47.671235" lon="3.8097767"><ele>225.00000000000003</ele><time>2026-04-05T16:07:05.487Z</time></trkpt><trkpt lat="47.6711833" lon="3.8098317"><ele>225.00000000000003</ele><time>2026-04-05T16:07:06.484Z</time></trkpt><trkpt lat="47.67113" lon="3.8098833"><ele>225.0</ele><time>2026-04-05T16:07:07.483Z</time></trkpt><trkpt lat="47.6710733" lon="3.8099267"><ele>225.00000000000003</ele><time>2026-04-05T16:07:08.482Z</time></trkpt><trkpt lat="47.6710167" lon="3.8099733"><ele>225.00000000000003</ele><time>2026-04-05T16:07:09.48Z</time></trkpt><trkpt lat="47.6709117" lon="3.8100617"><ele>225.0</ele><time>2026-04-05T16:07:11.485Z</time></trkpt><trkpt lat="47.6708017" lon="3.8101283"><ele>225.0</ele><time>2026-04-05T16:07:13.481Z</time></trkpt><trkpt lat="47.6706983" lon="3.810195"><ele>225.0</ele><time>2026-04-05T16:07:15.478Z</time></trkpt><trkpt lat="47.670595" lon="3.8102517"><ele>225.0</ele><time>2026-04-05T16:07:17.483Z</time></trkpt><trkpt lat="47.670495" lon="3.8103067"><ele>225.0</ele><time>2026-04-05T16:07:19.479Z</time></trkpt><trkpt lat="47.6703967" lon="3.8103583"><ele>225.2</ele><time>2026-04-05T16:07:21.491Z</time></trkpt><trkpt lat="47.6703017" lon="3.8104083"><ele>225.4</ele><time>2026-04-05T16:07:23.488Z</time></trkpt><trkpt lat="47.6702083" lon="3.8104617"><ele>225.60000000000002</ele><time>2026-04-05T16:07:25.485Z</time></trkpt><trkpt lat="47.67012" lon="3.8105133"><ele>225.8</ele><time>2026-04-05T16:07:27.49Z</time></trkpt><trkpt lat="47.670035" lon="3.8105667"><ele>226.0</ele><time>2026-04-05T16:07:29.487Z</time></trkpt><trkpt lat="47.6699567" lon="3.810595"><ele>225.99999999999997</ele><time>2026-04-05T16:07:31.482Z</time></trkpt><trkpt lat="47.6698817" lon="3.8106083"><ele>226.0</ele><time>2026-04-05T16:07:33.488Z</time></trkpt><trkpt lat="47.6698" lon="3.8105817"><ele>226.0</ele><time>2026-04-05T16:07:35.485Z</time></trkpt><trkpt lat="47.669725" lon="3.81052"><ele>226.0</ele><time>2026-04-05T16:07:37.481Z</time></trkpt><trkpt lat="47.6697067" lon="3.810415"><ele>225.99999999999997</ele><time>2026-04-05T16:07:40.484Z</time></trkpt><trkpt lat="47.6696583" lon="3.81035"><ele>226.0</ele><time>2026-04-05T16:07:52.479Z</time></trkpt><trkpt lat="47.6696217" lon="3.8102583"><ele>226.0</ele><time>2026-04-05T16:07:54.493Z</time></trkpt><trkpt lat="47.6695817" lon="3.810175"><ele>226.0</ele><time>2026-04-05T16:07:56.49Z</time></trkpt><trkpt lat="47.6695417" lon="3.8100917"><ele>226.0</ele><time>2026-04-05T16:07:58.478Z</time></trkpt><trkpt lat="47.6695017" lon="3.8100067"><ele>226.0</ele><time>2026-04-05T16:08:00.491Z</time></trkpt><trkpt lat="47.66946" lon="3.809925"><ele>226.0</ele><time>2026-04-05T16:08:02.488Z</time></trkpt><trkpt lat="47.6694167" lon="3.8098417"><ele>226.0</ele><time>2026-04-05T16:08:04.484Z</time></trkpt><trkpt lat="47.66937" lon="3.809755"><ele>226.0</ele><time>2026-04-05T16:08:06.489Z</time></trkpt><trkpt lat="47.6693217" lon="3.8096633"><ele>225.99999999999997</ele><time>2026-04-05T16:08:08.485Z</time></trkpt><trkpt lat="47.6692733" lon="3.8095683"><ele>226.0</ele><time>2026-04-05T16:08:10.482Z</time></trkpt><trkpt lat="47.6692167" lon="3.8094733"><ele>226.0</ele><time>2026-04-05T16:08:12.487Z</time></trkpt><trkpt lat="47.6691617" lon="3.8093733"><ele>226.0</ele><time>2026-04-05T16:08:14.483Z</time></trkpt><trkpt lat="47.6691083" lon="3.80927"><ele>225.99999999999997</ele><time>2026-04-05T16:08:16.487Z</time></trkpt><trkpt lat="47.6690567" lon="3.80916"><ele>226.0</ele><time>2026-04-05T16:08:18.485Z</time></trkpt><trkpt lat="47.669" lon="3.8090467"><ele>225.8</ele><time>2026-04-05T16:08:20.481Z</time></trkpt><trkpt lat="47.6689367" lon="3.808935"><ele>225.60000000000002</ele><time>2026-04-05T16:08:22.486Z</time></trkpt><trkpt lat="47.6688683" lon="3.8088283"><ele>225.4</ele><time>2026-04-05T16:08:24.482Z</time></trkpt><trkpt lat="47.6687933" lon="3.8087283"><ele>225.2</ele><time>2026-04-05T16:08:26.479Z</time></trkpt><trkpt lat="47.6687133" lon="3.808645"><ele>225.0</ele><time>2026-04-05T16:08:28.484Z</time></trkpt><trkpt lat="47.6686267" lon="3.8085683"><ele>224.8</ele><time>2026-04-05T16:08:30.48Z</time></trkpt><trkpt lat="47.66854" lon="3.8085"><ele>224.6</ele><time>2026-04-05T16:08:32.477Z</time></trkpt><trkpt lat="47.6684517" lon="3.80843"><ele>224.39999999999998</ele><time>2026-04-05T16:08:34.489Z</time></trkpt><trkpt lat="47.6683617" lon="3.8083583"><ele>224.2</ele><time>2026-04-05T16:08:36.486Z</time></trkpt><trkpt lat="47.668275" lon="3.8082867"><ele>224.0</ele><time>2026-04-05T16:08:38.491Z</time></trkpt><trkpt lat="47.6682017" lon="3.8082317"><ele>224.00000000000003</ele><time>2026-04-05T16:08:40.487Z</time></trkpt><trkpt lat="47.6681367" lon="3.8081783"><ele>224.0</ele><time>2026-04-05T16:08:42.484Z</time></trkpt><trkpt lat="47.6680717" lon="3.8081267"><ele>224.0</ele><time>2026-04-05T16:08:44.489Z</time></trkpt><trkpt lat="47.668" lon="3.8080667"><ele>224.0</ele><time>2026-04-05T16:08:46.486Z</time></trkpt><trkpt lat="47.6679217" lon="3.807995"><ele>224.00000000000003</ele><time>2026-04-05T16:08:48.481Z</time></trkpt><trkpt lat="47.66784" lon="3.8079167"><ele>224.0</ele><time>2026-04-05T16:08:50.486Z</time></trkpt><trkpt lat="47.6677533" lon="3.8078583"><ele>222.79999999999998</ele><time>2026-04-05T16:08:52.484Z</time></trkpt><trkpt lat="47.6676617" lon="3.80784"><ele>221.59999999999997</ele><time>2026-04-05T16:08:54.48Z</time></trkpt><trkpt lat="47.6675717" lon="3.807875"><ele>220.4</ele><time>2026-04-05T16:08:56.485Z</time></trkpt><trkpt lat="47.6675083" lon="3.8079533"><ele>219.2</ele><time>2026-04-05T16:08:58.482Z</time></trkpt><trkpt lat="47.6674567" lon="3.8080783"><ele>218.0</ele><time>2026-04-05T16:09:00.486Z</time></trkpt><trkpt lat="47.667425" lon="3.8082417"><ele>218.00000000000003</ele><time>2026-04-05T16:09:02.482Z</time></trkpt><trkpt lat="47.6674417" lon="3.808395"><ele>218.0</ele><time>2026-04-05T16:09:04.479Z</time></trkpt><trkpt lat="47.6674367" lon="3.8085"><ele>218.0</ele><time>2026-04-05T16:09:05.478Z</time></trkpt><trkpt lat="47.6674367" lon="3.8086083"><ele>218.0</ele><time>2026-04-05T16:09:06.484Z</time></trkpt><trkpt lat="47.66744" lon="3.8087133"><ele>218.00000000000003</ele><time>2026-04-05T16:09:07.482Z</time></trkpt><trkpt lat="47.6674483" lon="3.80882"><ele>218.0</ele><time>2026-04-05T16:09:08.481Z</time></trkpt><trkpt lat="47.667455" lon="3.8089283"><ele>216.83333333333334</ele><time>2026-04-05T16:09:09.479Z</time></trkpt><trkpt lat="47.6674583" lon="3.8090417"><ele>215.66666666666669</ele><time>2026-04-05T16:09:10.476Z</time></trkpt><trkpt lat="47.667465" lon="3.8091583"><ele>214.5</ele><time>2026-04-05T16:09:11.492Z</time></trkpt><trkpt lat="47.6674717" lon="3.80928"><ele>213.33333333333331</ele><time>2026-04-05T16:09:12.49Z</time></trkpt><trkpt lat="47.6674767" lon="3.809405"><ele>212.16666666666666</ele><time>2026-04-05T16:09:13.489Z</time></trkpt><trkpt lat="47.667485" lon="3.8095333"><ele>211.0</ele><time>2026-04-05T16:09:14.486Z</time></trkpt><trkpt lat="47.667495" lon="3.8096633"><ele>210.16666666666666</ele><time>2026-04-05T16:09:15.485Z</time></trkpt><trkpt lat="47.6675033" lon="3.809795"><ele>209.33333333333331</ele><time>2026-04-05T16:09:16.482Z</time></trkpt><trkpt lat="47.6675133" lon="3.8099283"><ele>208.5</ele><time>2026-04-05T16:09:17.489Z</time></trkpt><trkpt lat="47.6675267" lon="3.8100617"><ele>207.66666666666669</ele><time>2026-04-05T16:09:18.488Z</time></trkpt><trkpt lat="47.6675417" lon="3.8101933"><ele>206.83333333333334</ele><time>2026-04-05T16:09:19.487Z</time></trkpt><trkpt lat="47.6675583" lon="3.8103233"><ele>206.0</ele><time>2026-04-05T16:09:20.484Z</time></trkpt><trkpt lat="47.667575" lon="3.8104533"><ele>205.33333333333334</ele><time>2026-04-05T16:09:21.483Z</time></trkpt><trkpt lat="47.66759" lon="3.810575"><ele>204.66666666666669</ele><time>2026-04-05T16:09:22.49Z</time></trkpt><trkpt lat="47.6676033" lon="3.810695"><ele>204.0</ele><time>2026-04-05T16:09:23.488Z</time></trkpt><trkpt lat="47.6676167" lon="3.8108083"><ele>203.33333333333331</ele><time>2026-04-05T16:09:24.486Z</time></trkpt><trkpt lat="47.6676283" lon="3.8109183"><ele>202.66666666666666</ele><time>2026-04-05T16:09:25.484Z</time></trkpt><trkpt lat="47.6676417" lon="3.8110283"><ele>202.0</ele><time>2026-04-05T16:09:26.483Z</time></trkpt><trkpt lat="47.667655" lon="3.81114"><ele>201.16666666666666</ele><time>2026-04-05T16:09:27.48Z</time></trkpt><trkpt lat="47.6676717" lon="3.8112483"><ele>200.33333333333331</ele><time>2026-04-05T16:09:28.488Z</time></trkpt><trkpt lat="47.6676867" lon="3.8113567"><ele>199.5</ele><time>2026-04-05T16:09:29.486Z</time></trkpt><trkpt lat="47.667705" lon="3.8114683"><ele>198.66666666666669</ele><time>2026-04-05T16:09:30.484Z</time></trkpt><trkpt lat="47.6677183" lon="3.8115883"><ele>197.83333333333334</ele><time>2026-04-05T16:09:31.482Z</time></trkpt><trkpt lat="47.6677333" lon="3.8117"><ele>197.0</ele><time>2026-04-05T16:09:32.481Z</time></trkpt><trkpt lat="47.66775" lon="3.8118083"><ele>196.28571428571428</ele><time>2026-04-05T16:09:33.486Z</time></trkpt><trkpt lat="47.6677667" lon="3.811915"><ele>195.57142857142858</ele><time>2026-04-05T16:09:34.485Z</time></trkpt><trkpt lat="47.6677833" lon="3.812025"><ele>194.85714285714283</ele><time>2026-04-05T16:09:35.484Z</time></trkpt><trkpt lat="47.667805" lon="3.812125"><ele>194.14285714285714</ele><time>2026-04-05T16:09:36.482Z</time></trkpt><trkpt lat="47.667835" lon="3.812215"><ele>193.42857142857142</ele><time>2026-04-05T16:09:37.48Z</time></trkpt><trkpt lat="47.6678667" lon="3.8123067"><ele>192.7142857142857</ele><time>2026-04-05T16:09:38.477Z</time></trkpt><trkpt lat="47.6678967" lon="3.8124033"><ele>192.0</ele><time>2026-04-05T16:09:39.484Z</time></trkpt><trkpt lat="47.667915" lon="3.81251"><ele>193.83333333333334</ele><time>2026-04-05T16:09:40.482Z</time></trkpt><trkpt lat="47.667925" lon="3.81262"><ele>195.66666666666669</ele><time>2026-04-05T16:09:41.482Z</time></trkpt><trkpt lat="47.6679283" lon="3.8127283"><ele>197.5</ele><time>2026-04-05T16:09:42.479Z</time></trkpt><trkpt lat="47.6679283" lon="3.81284"><ele>199.33333333333334</ele><time>2026-04-05T16:09:43.477Z</time></trkpt><trkpt lat="47.6679217" lon="3.8129567"><ele>201.16666666666669</ele><time>2026-04-05T16:09:44.493Z</time></trkpt><trkpt lat="47.667915" lon="3.8130717"><ele>203.0</ele><time>2026-04-05T16:09:45.483Z</time></trkpt><trkpt lat="47.66791" lon="3.813185"><ele>203.0</ele><time>2026-04-05T16:09:46.481Z</time></trkpt><trkpt lat="47.6679033" lon="3.8133"><ele>203.0</ele><time>2026-04-05T16:09:47.479Z</time></trkpt><trkpt lat="47.6679" lon="3.8134133"><ele>203.0</ele><time>2026-04-05T16:09:48.477Z</time></trkpt><trkpt lat="47.6678817" lon="3.813735"><ele>203.0</ele><time>2026-04-05T16:09:51.488Z</time></trkpt><trkpt lat="47.6678767" lon="3.8138283"><ele>203.0</ele><time>2026-04-05T16:09:52.487Z</time></trkpt><trkpt lat="47.6678683" lon="3.8140033"><ele>201.0</ele><time>2026-04-05T16:09:54.484Z</time></trkpt><trkpt lat="47.66786" lon="3.8141783"><ele>199.0</ele><time>2026-04-05T16:09:56.488Z</time></trkpt><trkpt lat="47.66786" lon="3.8143533"><ele>197.0</ele><time>2026-04-05T16:09:58.485Z</time></trkpt><trkpt lat="47.667895" lon="3.8147233"><ele>195.71428571428572</ele><time>2026-04-05T16:10:02.486Z</time></trkpt><trkpt lat="47.6679083" lon="3.8148167"><ele>194.42857142857144</ele><time>2026-04-05T16:10:03.485Z</time></trkpt><trkpt lat="47.6679233" lon="3.8149117"><ele>193.14285714285714</ele><time>2026-04-05T16:10:04.483Z</time></trkpt><trkpt lat="47.6679433" lon="3.8150067"><ele>191.85714285714286</ele><time>2026-04-05T16:10:05.48Z</time></trkpt><trkpt lat="47.6679633" lon="3.8151017"><ele>190.57142857142856</ele><time>2026-04-05T16:10:06.488Z</time></trkpt><trkpt lat="47.6679833" lon="3.8151933"><ele>189.28571428571428</ele><time>2026-04-05T16:10:07.485Z</time></trkpt><trkpt lat="47.6680033" lon="3.8152833"><ele>188.0</ele><time>2026-04-05T16:10:08.484Z</time></trkpt><trkpt lat="47.6680417" lon="3.8154417"><ele>186.0</ele><time>2026-04-05T16:10:10.481Z</time></trkpt><trkpt lat="47.66807" lon="3.8155517"><ele>184.0</ele><time>2026-04-05T16:10:12.485Z</time></trkpt><trkpt lat="47.6680667" lon="3.8156817"><ele>182.0</ele><time>2026-04-05T16:10:15.48Z</time></trkpt><trkpt lat="47.6680183" lon="3.8157733"><ele>180.0</ele><time>2026-04-05T16:10:17.485Z</time></trkpt><trkpt lat="47.667935" lon="3.815855"><ele>178.0</ele><time>2026-04-05T16:10:19.482Z</time></trkpt><trkpt lat="47.6678267" lon="3.8159467"><ele>176.66666666666669</ele><time>2026-04-05T16:10:21.478Z</time></trkpt><trkpt lat="47.6677683" lon="3.8159917"><ele>175.33333333333334</ele><time>2026-04-05T16:10:22.493Z</time></trkpt><trkpt lat="47.6677133" lon="3.8160383"><ele>174.0</ele><time>2026-04-05T16:10:23.492Z</time></trkpt><trkpt lat="47.6676217" lon="3.8161133"><ele>172.66666666666666</ele><time>2026-04-05T16:10:25.488Z</time></trkpt><trkpt lat="47.6675567" lon="3.8161517"><ele>171.33333333333331</ele><time>2026-04-05T16:10:27.485Z</time></trkpt><trkpt lat="47.66749" lon="3.816175"><ele>170.0</ele><time>2026-04-05T16:10:31.486Z</time></trkpt><trkpt lat="47.6674983" lon="3.8163067"><ele>170.0</ele><time>2026-04-05T16:10:39.489Z</time></trkpt><trkpt lat="47.667535" lon="3.8164583"><ele>170.0</ele><time>2026-04-05T16:10:41.484Z</time></trkpt><trkpt lat="47.6675567" lon="3.816555"><ele>170.0</ele><time>2026-04-05T16:10:42.482Z</time></trkpt><trkpt lat="47.6675817" lon="3.8166583"><ele>170.0</ele><time>2026-04-05T16:10:43.482Z</time></trkpt><trkpt lat="47.6676067" lon="3.8167633"><ele>170.0</ele><time>2026-04-05T16:10:44.487Z</time></trkpt><trkpt lat="47.6676383" lon="3.8168617"><ele>170.0</ele><time>2026-04-05T16:10:45.486Z</time></trkpt><trkpt lat="47.667665" lon="3.8169583"><ele>169.66666666666666</ele><time>2026-04-05T16:10:46.485Z</time></trkpt><trkpt lat="47.66769" lon="3.8170467"><ele>169.33333333333331</ele><time>2026-04-05T16:10:47.483Z</time></trkpt><trkpt lat="47.6677217" lon="3.8172033"><ele>169.0</ele><time>2026-04-05T16:10:49.479Z</time></trkpt><trkpt lat="47.6677367" lon="3.81733"><ele>168.66666666666666</ele><time>2026-04-05T16:10:51.483Z</time></trkpt><trkpt lat="47.6677517" lon="3.8174233"><ele>168.33333333333334</ele><time>2026-04-05T16:10:54.479Z</time></trkpt><trkpt lat="47.6678383" lon="3.8174417"><ele>168.0</ele><time>2026-04-05T16:13:44.483Z</time></trkpt><trkpt lat="47.6677667" lon="3.81743"><ele>168.0</ele><time>2026-04-05T16:13:54.481Z</time></trkpt><trkpt lat="47.6676933" lon="3.81743"><ele>168.0</ele><time>2026-04-05T16:14:00.48Z</time></trkpt></trkseg><trkseg><trkpt lat="47.66771" lon="3.8177117"><ele>170.0</ele><time>2026-04-06T08:14:58.483Z</time></trkpt><trkpt lat="47.6676933" lon="3.817825"><ele>170.0</ele><time>2026-04-06T08:15:01.486Z</time></trkpt><trkpt lat="47.6676667" lon="3.8179483"><ele>170.0</ele><time>2026-04-06T08:15:03.481Z</time></trkpt><trkpt lat="47.6676517" lon="3.8180883"><ele>170.0</ele><time>2026-04-06T08:15:05.479Z</time></trkpt><trkpt lat="47.6676467" lon="3.8182483"><ele>170.0</ele><time>2026-04-06T08:15:07.475Z</time></trkpt><trkpt lat="47.6676133" lon="3.818405"><ele>170.0</ele><time>2026-04-06T08:15:09.488Z</time></trkpt><trkpt lat="47.6675817" lon="3.8185667"><ele>170.0</ele><time>2026-04-06T08:15:11.485Z</time></trkpt><trkpt lat="47.6675317" lon="3.8187383"><ele>170.0</ele><time>2026-04-06T08:15:13.481Z</time></trkpt><trkpt lat="47.6675" lon="3.8189183"><ele>170.0</ele><time>2026-04-06T08:15:15.495Z</time></trkpt><trkpt lat="47.66747" lon="3.819085"><ele>170.0</ele><time>2026-04-06T08:15:17.49Z</time></trkpt><trkpt lat="47.6674483" lon="3.8192067"><ele>170.0</ele><time>2026-04-06T08:15:19.488Z</time></trkpt><trkpt lat="47.66746" lon="3.8193067"><ele>170.0</ele><time>2026-04-06T08:15:21.484Z</time></trkpt><trkpt lat="47.667525" lon="3.8193683"><ele>170.0</ele><time>2026-04-06T08:15:23.481Z</time></trkpt><trkpt lat="47.6675933" lon="3.81941"><ele>170.0</ele><time>2026-04-06T08:15:25.494Z</time></trkpt><trkpt lat="47.6676783" lon="3.81945"><ele>170.0</ele><time>2026-04-06T08:15:27.489Z</time></trkpt><trkpt lat="47.6677583" lon="3.8195017"><ele>171.5</ele><time>2026-04-06T08:15:29.487Z</time></trkpt><trkpt lat="47.6678317" lon="3.8195583"><ele>173.0</ele><time>2026-04-06T08:15:31.483Z</time></trkpt><trkpt lat="47.6679033" lon="3.8196033"><ele>174.5</ele><time>2026-04-06T08:15:33.48Z</time></trkpt><trkpt lat="47.6679783" lon="3.8196617"><ele>176.0</ele><time>2026-04-06T08:15:36.482Z</time></trkpt><trkpt lat="47.668025" lon="3.8195667"><ele>177.5</ele><time>2026-04-06T08:15:39.486Z</time></trkpt><trkpt lat="47.6680383" lon="3.8194567"><ele>179.0</ele><time>2026-04-06T08:15:41.483Z</time></trkpt><trkpt lat="47.66806" lon="3.8193383"><ele>179.39999999999998</ele><time>2026-04-06T08:15:43.479Z</time></trkpt><trkpt lat="47.6680883" lon="3.8192083"><ele>179.8</ele><time>2026-04-06T08:15:45.475Z</time></trkpt><trkpt lat="47.66813" lon="3.8190633"><ele>180.2</ele><time>2026-04-06T08:15:47.489Z</time></trkpt><trkpt lat="47.6681617" lon="3.818915"><ele>180.60000000000002</ele><time>2026-04-06T08:15:49.484Z</time></trkpt><trkpt lat="47.6681867" lon="3.8188067"><ele>181.0</ele><time>2026-04-06T08:15:51.481Z</time></trkpt><trkpt lat="47.6682217" lon="3.818715"><ele>181.0</ele><time>2026-04-06T08:15:53.495Z</time></trkpt><trkpt lat="47.6682733" lon="3.81861"><ele>181.0</ele><time>2026-04-06T08:15:55.492Z</time></trkpt><trkpt lat="47.6683367" lon="3.8184867"><ele>181.0</ele><time>2026-04-06T08:15:57.488Z</time></trkpt><trkpt lat="47.6684017" lon="3.818355"><ele>181.0</ele><time>2026-04-06T08:15:59.484Z</time></trkpt><trkpt lat="47.6684683" lon="3.8182317"><ele>181.0</ele><time>2026-04-06T08:16:01.481Z</time></trkpt><trkpt lat="47.6685233" lon="3.8181167"><ele>180.66666666666669</ele><time>2026-04-06T08:16:03.494Z</time></trkpt><trkpt lat="47.6685583" lon="3.8180267"><ele>180.33333333333334</ele><time>2026-04-06T08:16:05.491Z</time></trkpt><trkpt lat="47.6685783" lon="3.817855"><ele>180.0</ele><time>2026-04-06T08:16:10.49Z</time></trkpt><trkpt lat="47.6685367" lon="3.8177833"><ele>179.66666666666666</ele><time>2026-04-06T08:16:34.481Z</time></trkpt><trkpt lat="47.668535" lon="3.8176667"><ele>179.33333333333331</ele><time>2026-04-06T08:16:39.481Z</time></trkpt><trkpt lat="47.6685167" lon="3.8175517"><ele>179.0</ele><time>2026-04-06T08:16:43.491Z</time></trkpt><trkpt lat="47.6684967" lon="3.8174367"><ele>177.83333333333331</ele><time>2026-04-06T08:16:46.477Z</time></trkpt><trkpt lat="47.6684817" lon="3.8173033"><ele>176.66666666666666</ele><time>2026-04-06T08:16:49.481Z</time></trkpt><trkpt lat="47.668475" lon="3.8171967"><ele>175.5</ele><time>2026-04-06T08:16:51.477Z</time></trkpt><trkpt lat="47.6684633" lon="3.8171"><ele>174.33333333333334</ele><time>2026-04-06T08:16:53.489Z</time></trkpt><trkpt lat="47.6684467" lon="3.8169633"><ele>173.16666666666669</ele><time>2026-04-06T08:16:56.477Z</time></trkpt><trkpt lat="47.6684283" lon="3.8168683"><ele>172.0</ele><time>2026-04-06T08:16:58.49Z</time></trkpt><trkpt lat="47.6684083" lon="3.816775"><ele>172.0</ele><time>2026-04-06T08:17:01.476Z</time></trkpt><trkpt lat="47.6683783" lon="3.816675"><ele>172.0</ele><time>2026-04-06T08:17:03.472Z</time></trkpt><trkpt lat="47.6683433" lon="3.81659"><ele>172.0</ele><time>2026-04-06T08:17:04.496Z</time></trkpt><trkpt lat="47.6683017" lon="3.816475"><ele>172.0</ele><time>2026-04-06T08:17:05.486Z</time></trkpt><trkpt lat="47.6682583" lon="3.8163317"><ele>172.0</ele><time>2026-04-06T08:17:06.493Z</time></trkpt><trkpt lat="47.6682117" lon="3.81616"><ele>173.5</ele><time>2026-04-06T08:17:07.482Z</time></trkpt><trkpt lat="47.6681733" lon="3.815985"><ele>175.0</ele><time>2026-04-06T08:17:08.489Z</time></trkpt><trkpt lat="47.6681417" lon="3.815825"><ele>176.5</ele><time>2026-04-06T08:17:09.496Z</time></trkpt><trkpt lat="47.6680967" lon="3.8156583"><ele>178.0</ele><time>2026-04-06T08:17:10.485Z</time></trkpt><trkpt lat="47.6680467" lon="3.815475"><ele>178.0</ele><time>2026-04-06T08:17:11.491Z</time></trkpt><trkpt lat="47.6679983" lon="3.815275"><ele>178.0</ele><time>2026-04-06T08:17:12.482Z</time></trkpt><trkpt lat="47.6679517" lon="3.8150683"><ele>178.0</ele><time>2026-04-06T08:17:13.489Z</time></trkpt><trkpt lat="47.6679167" lon="3.8148633"><ele>178.0</ele><time>2026-04-06T08:17:14.479Z</time></trkpt><trkpt lat="47.6678866" lon="3.8146671"><ele>180.5</ele><time>2026-04-06T08:17:15.485Z</time></trkpt><trkpt lat="47.6678699" lon="3.8144672"><ele>183.0</ele><time>2026-04-06T08:17:16.491Z</time></trkpt><trkpt lat="47.6678673" lon="3.814257"><ele>185.5</ele><time>2026-04-06T08:17:17.481Z</time></trkpt><trkpt lat="47.667874" lon="3.8140357"><ele>188.0</ele><time>2026-04-06T08:17:18.487Z</time></trkpt><trkpt lat="47.6678853" lon="3.8138118"><ele>190.25</ele><time>2026-04-06T08:17:19.478Z</time></trkpt><trkpt lat="47.6678986" lon="3.8135911"><ele>192.5</ele><time>2026-04-06T08:17:20.485Z</time></trkpt><trkpt lat="47.6679116" lon="3.8133859"><ele>194.75</ele><time>2026-04-06T08:17:21.492Z</time></trkpt><trkpt lat="47.6679212" lon="3.8131839"><ele>197.0</ele><time>2026-04-06T08:17:22.481Z</time></trkpt><trkpt lat="47.6679292" lon="3.8129785"><ele>198.5</ele><time>2026-04-06T08:17:23.488Z</time></trkpt><trkpt lat="47.6679317" lon="3.8127929"><ele>200.0</ele><time>2026-04-06T08:17:24.478Z</time></trkpt><trkpt lat="47.6679153" lon="3.8126075"><ele>201.5</ele><time>2026-04-06T08:17:25.485Z</time></trkpt><trkpt lat="47.6678646" lon="3.8124334"><ele>203.0</ele><time>2026-04-06T08:17:26.491Z</time></trkpt><trkpt lat="47.6678031" lon="3.812241"><ele>201.0</ele><time>2026-04-06T08:17:27.48Z</time></trkpt><trkpt lat="47.6677548" lon="3.8120185"><ele>199.0</ele><time>2026-04-06T08:17:28.488Z</time></trkpt><trkpt lat="47.6677234" lon="3.8117864"><ele>197.0</ele><time>2026-04-06T08:17:29.478Z</time></trkpt><trkpt lat="47.6676959" lon="3.811551"><ele>197.0</ele><time>2026-04-06T08:17:30.484Z</time></trkpt><trkpt lat="47.6676663" lon="3.8113123"><ele>197.0</ele><time>2026-04-06T08:17:31.49Z</time></trkpt><trkpt lat="47.6676351" lon="3.8110722"><ele>197.0</ele><time>2026-04-06T08:17:32.481Z</time></trkpt><trkpt lat="47.6676069" lon="3.8108412"><ele>198.25</ele><time>2026-04-06T08:17:33.487Z</time></trkpt><trkpt lat="47.6675883" lon="3.8106383"><ele>199.5</ele><time>2026-04-06T08:17:34.477Z</time></trkpt><trkpt lat="47.6675671" lon="3.810459"><ele>200.75</ele><time>2026-04-06T08:17:35.484Z</time></trkpt><trkpt lat="47.667547" lon="3.8103009"><ele>202.0</ele><time>2026-04-06T08:17:36.474Z</time></trkpt><trkpt lat="47.6675322" lon="3.8101608"><ele>202.8</ele><time>2026-04-06T08:17:37.48Z</time></trkpt><trkpt lat="47.6675182" lon="3.8100223"><ele>203.6</ele><time>2026-04-06T08:17:38.487Z</time></trkpt><trkpt lat="47.6675057" lon="3.809878"><ele>204.4</ele><time>2026-04-06T08:17:39.477Z</time></trkpt><trkpt lat="47.6674921" lon="3.809711"><ele>205.20000000000002</ele><time>2026-04-06T08:17:40.483Z</time></trkpt><trkpt lat="47.6674811" lon="3.8095317"><ele>206.0</ele><time>2026-04-06T08:17:41.472Z</time></trkpt><trkpt lat="47.6674697" lon="3.8093454"><ele>207.0</ele><time>2026-04-06T08:17:42.496Z</time></trkpt><trkpt lat="47.6674579" lon="3.8091649"><ele>208.0</ele><time>2026-04-06T08:17:43.486Z</time></trkpt><trkpt lat="47.667448" lon="3.8089944"><ele>209.0</ele><time>2026-04-06T08:17:44.492Z</time></trkpt><trkpt lat="47.6674393" lon="3.8088349"><ele>210.0</ele><time>2026-04-06T08:17:45.483Z</time></trkpt><trkpt lat="47.6674329" lon="3.8086891"><ele>211.0</ele><time>2026-04-06T08:17:46.489Z</time></trkpt><trkpt lat="47.6674279" lon="3.8085568"><ele>212.16666666666666</ele><time>2026-04-06T08:17:47.479Z</time></trkpt><trkpt lat="47.6674236" lon="3.8084412"><ele>213.33333333333331</ele><time>2026-04-06T08:17:48.486Z</time></trkpt><trkpt lat="47.6674237" lon="3.8083289"><ele>214.5</ele><time>2026-04-06T08:17:49.493Z</time></trkpt><trkpt lat="47.667441" lon="3.8082124"><ele>215.66666666666669</ele><time>2026-04-06T08:17:50.482Z</time></trkpt><trkpt lat="47.6674812" lon="3.8080941"><ele>216.83333333333334</ele><time>2026-04-06T08:17:51.488Z</time></trkpt><trkpt lat="47.667544" lon="3.807997"><ele>218.0</ele><time>2026-04-06T08:17:52.478Z</time></trkpt><trkpt lat="47.6676278" lon="3.8079377"><ele>218.0</ele><time>2026-04-06T08:17:53.486Z</time></trkpt><trkpt lat="47.6677265" lon="3.8079285"><ele>218.0</ele><time>2026-04-06T08:17:54.492Z</time></trkpt><trkpt lat="47.6678242" lon="3.8079742"><ele>218.0</ele><time>2026-04-06T08:17:55.482Z</time></trkpt><trkpt lat="47.6679227" lon="3.8080594"><ele>218.0</ele><time>2026-04-06T08:17:56.489Z</time></trkpt><trkpt lat="47.6680284" lon="3.8081511"><ele>218.0</ele><time>2026-04-06T08:17:57.479Z</time></trkpt><trkpt lat="47.6681446" lon="3.8082411"><ele>218.5</ele><time>2026-04-06T08:17:58.485Z</time></trkpt><trkpt lat="47.6682661" lon="3.8083352"><ele>219.0</ele><time>2026-04-06T08:17:59.491Z</time></trkpt><trkpt lat="47.6683832" lon="3.8084276"><ele>219.5</ele><time>2026-04-06T08:18:00.482Z</time></trkpt><trkpt lat="47.668497" lon="3.8085149"><ele>220.0</ele><time>2026-04-06T08:18:01.488Z</time></trkpt><trkpt lat="47.6686175" lon="3.8086064"><ele>221.25</ele><time>2026-04-06T08:18:02.478Z</time></trkpt><trkpt lat="47.6687405" lon="3.808717"><ele>222.5</ele><time>2026-04-06T08:18:03.484Z</time></trkpt><trkpt lat="47.6688522" lon="3.8088558"><ele>223.75</ele><time>2026-04-06T08:18:04.492Z</time></trkpt><trkpt lat="47.6689552" lon="3.8090218"><ele>225.0</ele><time>2026-04-06T08:18:05.481Z</time></trkpt><trkpt lat="47.6690553" lon="3.8092057"><ele>225.25</ele><time>2026-04-06T08:18:06.488Z</time></trkpt><trkpt lat="47.6691443" lon="3.8093844"><ele>225.5</ele><time>2026-04-06T08:18:07.478Z</time></trkpt><trkpt lat="47.6692252" lon="3.8095486"><ele>225.75</ele><time>2026-04-06T08:18:08.485Z</time></trkpt><trkpt lat="47.6693018" lon="3.8097001"><ele>226.0</ele><time>2026-04-06T08:18:09.491Z</time></trkpt><trkpt lat="47.6693692" lon="3.8098408"><ele>226.0</ele><time>2026-04-06T08:18:10.481Z</time></trkpt><trkpt lat="47.6694328" lon="3.8099626"><ele>226.00000000000003</ele><time>2026-04-06T08:18:11.488Z</time></trkpt><trkpt lat="47.6694994" lon="3.8100908"><ele>226.00000000000003</ele><time>2026-04-06T08:18:12.478Z</time></trkpt><trkpt lat="47.66956" lon="3.8102137"><ele>226.0</ele><time>2026-04-06T08:18:13.484Z</time></trkpt><trkpt lat="47.669616" lon="3.8103295"><ele>226.0</ele><time>2026-04-06T08:18:14.474Z</time></trkpt><trkpt lat="47.6696724" lon="3.8104363"><ele>225.99999999999997</ele><time>2026-04-06T08:18:15.497Z</time></trkpt><trkpt lat="47.6697316" lon="3.8105188"><ele>226.0</ele><time>2026-04-06T08:18:16.486Z</time></trkpt><trkpt lat="47.6697918" lon="3.8105645"><ele>226.0</ele><time>2026-04-06T08:18:17.476Z</time></trkpt><trkpt lat="47.6698692" lon="3.8105962"><ele>226.0</ele><time>2026-04-06T08:18:18.484Z</time></trkpt><trkpt lat="47.6699635" lon="3.8105893"><ele>225.99999999999997</ele><time>2026-04-06T08:18:19.474Z</time></trkpt><trkpt lat="47.6700667" lon="3.8105235"><ele>226.0</ele><time>2026-04-06T08:18:20.496Z</time></trkpt><trkpt lat="47.6701833" lon="3.810453"><ele>226.0</ele><time>2026-04-06T08:18:21.487Z</time></trkpt><trkpt lat="47.6703141" lon="3.8103811"><ele>226.0</ele><time>2026-04-06T08:18:22.494Z</time></trkpt><trkpt lat="47.6704498" lon="3.8103094"><ele>226.0</ele><time>2026-04-06T08:18:23.482Z</time></trkpt><trkpt lat="47.6706038" lon="3.8102285"><ele>226.0</ele><time>2026-04-06T08:18:24.49Z</time></trkpt><trkpt lat="47.6707624" lon="3.8101427"><ele>225.66666666666666</ele><time>2026-04-06T08:18:25.479Z</time></trkpt><trkpt lat="47.6709182" lon="3.8100442"><ele>225.33333333333331</ele><time>2026-04-06T08:18:26.486Z</time></trkpt><trkpt lat="47.6710632" lon="3.8099324"><ele>225.0</ele><time>2026-04-06T08:18:27.493Z</time></trkpt><trkpt lat="47.6711989" lon="3.8098092"><ele>225.0</ele><time>2026-04-06T08:18:28.483Z</time></trkpt><trkpt lat="47.6713282" lon="3.8096757"><ele>225.0</ele><time>2026-04-06T08:18:29.49Z</time></trkpt><trkpt lat="47.6714612" lon="3.8095164"><ele>225.0</ele><time>2026-04-06T08:18:30.479Z</time></trkpt><trkpt lat="47.6715951" lon="3.8093424"><ele>224.66666666666669</ele><time>2026-04-06T08:18:31.486Z</time></trkpt><trkpt lat="47.6717213" lon="3.80917"><ele>224.33333333333334</ele><time>2026-04-06T08:18:32.493Z</time></trkpt><trkpt lat="47.6718341" lon="3.8090096"><ele>224.0</ele><time>2026-04-06T08:18:33.483Z</time></trkpt><trkpt lat="47.671937" lon="3.8088681"><ele>224.6</ele><time>2026-04-06T08:18:34.489Z</time></trkpt><trkpt lat="47.6720277" lon="3.8087508"><ele>225.2</ele><time>2026-04-06T08:18:35.479Z</time></trkpt><trkpt lat="47.6721223" lon="3.808635"><ele>225.79999999999998</ele><time>2026-04-06T08:18:36.486Z</time></trkpt><trkpt lat="47.6722108" lon="3.8085374"><ele>226.39999999999998</ele><time>2026-04-06T08:18:37.491Z</time></trkpt><trkpt lat="47.6722909" lon="3.8084677"><ele>227.0</ele><time>2026-04-06T08:18:38.482Z</time></trkpt><trkpt lat="47.6723749" lon="3.8084384"><ele>227.0</ele><time>2026-04-06T08:18:39.489Z</time></trkpt><trkpt lat="47.6724667" lon="3.8084717"><ele>227.0</ele><time>2026-04-06T08:18:40.479Z</time></trkpt><trkpt lat="47.6725833" lon="3.8084917"><ele>227.0</ele><time>2026-04-06T08:18:41.484Z</time></trkpt><trkpt lat="47.6727117" lon="3.8085167"><ele>227.0</ele><time>2026-04-06T08:18:42.492Z</time></trkpt><trkpt lat="47.672845" lon="3.8085483"><ele>227.75</ele><time>2026-04-06T08:18:43.482Z</time></trkpt><trkpt lat="47.67297" lon="3.8085783"><ele>228.5</ele><time>2026-04-06T08:18:44.488Z</time></trkpt><trkpt lat="47.673095" lon="3.80861"><ele>229.25</ele><time>2026-04-06T08:18:45.478Z</time></trkpt><trkpt lat="47.6732283" lon="3.8086433"><ele>230.0</ele><time>2026-04-06T08:18:46.485Z</time></trkpt><trkpt lat="47.6733567" lon="3.8086733"><ele>230.0</ele><time>2026-04-06T08:18:47.475Z</time></trkpt><trkpt lat="47.673485" lon="3.808695"><ele>230.0</ele><time>2026-04-06T08:18:48.48Z</time></trkpt><trkpt lat="47.6736167" lon="3.8087117"><ele>230.0</ele><time>2026-04-06T08:18:49.488Z</time></trkpt><trkpt lat="47.673745" lon="3.8087267"><ele>230.0</ele><time>2026-04-06T08:18:50.477Z</time></trkpt><trkpt lat="47.673865" lon="3.8087483"><ele>231.0</ele><time>2026-04-06T08:18:51.485Z</time></trkpt><trkpt lat="47.6739817" lon="3.8087733"><ele>232.0</ele><time>2026-04-06T08:18:52.474Z</time></trkpt><trkpt lat="47.674095" lon="3.8088067"><ele>233.0</ele><time>2026-04-06T08:18:53.498Z</time></trkpt><trkpt lat="47.674205" lon="3.808845"><ele>234.0</ele><time>2026-04-06T08:18:54.488Z</time></trkpt><trkpt lat="47.6743117" lon="3.8088833"><ele>234.0</ele><time>2026-04-06T08:18:55.494Z</time></trkpt><trkpt lat="47.6744167" lon="3.808925"><ele>233.99999999999997</ele><time>2026-04-06T08:18:56.483Z</time></trkpt><trkpt lat="47.6745133" lon="3.808965"><ele>233.99999999999997</ele><time>2026-04-06T08:18:57.491Z</time></trkpt><trkpt lat="47.6746117" lon="3.809"><ele>234.0</ele><time>2026-04-06T08:18:58.481Z</time></trkpt><trkpt lat="47.67471" lon="3.8090333"><ele>234.0</ele><time>2026-04-06T08:18:59.487Z</time></trkpt><trkpt lat="47.6748133" lon="3.8090717"><ele>236.0</ele><time>2026-04-06T08:19:00.494Z</time></trkpt><trkpt lat="47.674925" lon="3.80911"><ele>238.0</ele><time>2026-04-06T08:19:01.484Z</time></trkpt><trkpt lat="47.675035" lon="3.8091467"><ele>240.0</ele><time>2026-04-06T08:19:02.489Z</time></trkpt><trkpt lat="47.67515" lon="3.8091817"><ele>242.0</ele><time>2026-04-06T08:19:03.479Z</time></trkpt><trkpt lat="47.67527" lon="3.809215"><ele>242.5</ele><time>2026-04-06T08:19:04.487Z</time></trkpt><trkpt lat="47.6753867" lon="3.809255"><ele>243.0</ele><time>2026-04-06T08:19:05.494Z</time></trkpt><trkpt lat="47.675505" lon="3.8093"><ele>243.5</ele><time>2026-04-06T08:19:06.483Z</time></trkpt><trkpt lat="47.6756233" lon="3.8093383"><ele>244.0</ele><time>2026-04-06T08:19:07.49Z</time></trkpt><trkpt lat="47.6757417" lon="3.80937"><ele>244.0</ele><time>2026-04-06T08:19:08.48Z</time></trkpt><trkpt lat="47.6758517" lon="3.8094017"><ele>243.99999999999997</ele><time>2026-04-06T08:19:09.486Z</time></trkpt><trkpt lat="47.6759617" lon="3.8094317"><ele>243.99999999999997</ele><time>2026-04-06T08:19:10.493Z</time></trkpt><trkpt lat="47.6760583" lon="3.809455"><ele>244.0</ele><time>2026-04-06T08:19:11.483Z</time></trkpt><trkpt lat="47.67614" lon="3.809475"><ele>244.0</ele><time>2026-04-06T08:19:12.489Z</time></trkpt><trkpt lat="47.6762133" lon="3.80949"><ele>243.99999999999997</ele><time>2026-04-06T08:19:13.478Z</time></trkpt><trkpt lat="47.6762817" lon="3.8095083"><ele>244.0</ele><time>2026-04-06T08:19:14.485Z</time></trkpt><trkpt lat="47.6763917" lon="3.8095367"><ele>244.0</ele><time>2026-04-06T08:19:16.483Z</time></trkpt><trkpt lat="47.6764717" lon="3.80949"><ele>244.0</ele><time>2026-04-06T08:19:19.486Z</time></trkpt><trkpt lat="47.676495" lon="3.8093933"><ele>243.99999999999997</ele><time>2026-04-06T08:19:21.482Z</time></trkpt><trkpt lat="47.67652" lon="3.809295"><ele>244.0</ele><time>2026-04-06T08:19:24.484Z</time></trkpt><trkpt lat="47.6765717" lon="3.8092083"><ele>243.99999999999997</ele><time>2026-04-06T08:19:26.482Z</time></trkpt><trkpt lat="47.6766017" lon="3.8090767"><ele>244.0</ele><time>2026-04-06T08:19:28.478Z</time></trkpt><trkpt lat="47.6766217" lon="3.8089833"><ele>244.0</ele><time>2026-04-06T08:19:30.475Z</time></trkpt><trkpt lat="47.6766033" lon="3.8088817"><ele>244.0</ele><time>2026-04-06T08:19:33.495Z</time></trkpt><trkpt lat="47.67666" lon="3.8088233"><ele>243.99999999999997</ele><time>2026-04-06T08:19:36.48Z</time></trkpt><trkpt lat="47.6766933" lon="3.8087083"><ele>244.0</ele><time>2026-04-06T08:19:39.484Z</time></trkpt><trkpt lat="47.6766783" lon="3.8086"><ele>244.0</ele><time>2026-04-06T08:19:42.487Z</time></trkpt><trkpt lat="47.6766917" lon="3.808485"><ele>243.99999999999997</ele><time>2026-04-06T08:23:02.488Z</time></trkpt><trkpt lat="47.676685" lon="3.8086917"><ele>243.99999999999997</ele><time>2026-04-06T08:23:59.481Z</time></trkpt><trkpt lat="47.6766567" lon="3.8087917"><ele>244.0</ele><time>2026-04-06T08:24:03.489Z</time></trkpt><trkpt lat="47.6766133" lon="3.8088767"><ele>244.0</ele><time>2026-04-06T08:24:06.494Z</time></trkpt><trkpt lat="47.6766317" lon="3.8090183"><ele>243.99999999999997</ele><time>2026-04-06T08:24:09.48Z</time></trkpt><trkpt lat="47.676615" lon="3.8091233"><ele>244.0</ele><time>2026-04-06T08:24:11.476Z</time></trkpt><trkpt lat="47.6765883" lon="3.8092383"><ele>244.0</ele><time>2026-04-06T08:24:13.489Z</time></trkpt><trkpt lat="47.6765583" lon="3.809345"><ele>244.0</ele><time>2026-04-06T08:24:15.486Z</time></trkpt><trkpt lat="47.6765267" lon="3.80945"><ele>243.99999999999997</ele><time>2026-04-06T08:24:18.489Z</time></trkpt><trkpt lat="47.6765317" lon="3.8095517"><ele>244.0</ele><time>2026-04-06T08:24:23.489Z</time></trkpt><trkpt lat="47.6764667" lon="3.8096117"><ele>244.0</ele><time>2026-04-06T08:24:30.484Z</time></trkpt><trkpt lat="47.67639" lon="3.80959"><ele>243.99999999999997</ele><time>2026-04-06T08:24:32.481Z</time></trkpt><trkpt lat="47.6762833" lon="3.8095533"><ele>243.99999999999997</ele><time>2026-04-06T08:24:34.495Z</time></trkpt><trkpt lat="47.6761583" lon="3.8095233"><ele>244.0</ele><time>2026-04-06T08:24:36.49Z</time></trkpt><trkpt lat="47.6760933" lon="3.809515"><ele>244.0</ele><time>2026-04-06T08:24:37.481Z</time></trkpt><trkpt lat="47.6760233" lon="3.809505"><ele>243.33333333333331</ele><time>2026-04-06T08:24:38.488Z</time></trkpt><trkpt lat="47.6759467" lon="3.8094883"><ele>242.66666666666666</ele><time>2026-04-06T08:24:39.494Z</time></trkpt><trkpt lat="47.6758667" lon="3.80947"><ele>242.0</ele><time>2026-04-06T08:24:40.484Z</time></trkpt><trkpt lat="47.6757833" lon="3.8094433"><ele>241.33333333333331</ele><time>2026-04-06T08:24:41.491Z</time></trkpt><trkpt lat="47.675695" lon="3.8094117"><ele>240.66666666666666</ele><time>2026-04-06T08:24:42.48Z</time></trkpt><trkpt lat="47.6756083" lon="3.8093783"><ele>240.0</ele><time>2026-04-06T08:24:43.487Z</time></trkpt><trkpt lat="47.67552" lon="3.8093517"><ele>240.4</ele><time>2026-04-06T08:24:44.477Z</time></trkpt><trkpt lat="47.6754317" lon="3.8093217"><ele>240.8</ele><time>2026-04-06T08:24:45.484Z</time></trkpt><trkpt lat="47.6753433" lon="3.8092917"><ele>241.2</ele><time>2026-04-06T08:24:46.49Z</time></trkpt><trkpt lat="47.6752533" lon="3.80926"><ele>241.6</ele><time>2026-04-06T08:24:47.48Z</time></trkpt><trkpt lat="47.6751617" lon="3.8092283"><ele>242.0</ele><time>2026-04-06T08:24:48.487Z</time></trkpt><trkpt lat="47.67507" lon="3.80919"><ele>242.0</ele><time>2026-04-06T08:24:49.477Z</time></trkpt><trkpt lat="47.67498" lon="3.8091517"><ele>242.0</ele><time>2026-04-06T08:24:50.483Z</time></trkpt><trkpt lat="47.674895" lon="3.8091133"><ele>242.0</ele><time>2026-04-06T08:24:51.49Z</time></trkpt><trkpt lat="47.6748083" lon="3.809075"><ele>242.0</ele><time>2026-04-06T08:24:52.479Z</time></trkpt><trkpt lat="47.6747217" lon="3.80904"><ele>242.0</ele><time>2026-04-06T08:24:53.487Z</time></trkpt><trkpt lat="47.6746367" lon="3.8090083"><ele>242.0</ele><time>2026-04-06T08:24:54.476Z</time></trkpt><trkpt lat="47.6745483" lon="3.8089783"><ele>242.0</ele><time>2026-04-06T08:24:55.483Z</time></trkpt><trkpt lat="47.6744583" lon="3.80895"><ele>242.0</ele><time>2026-04-06T08:24:56.49Z</time></trkpt><trkpt lat="47.674365" lon="3.8089183"><ele>242.0</ele><time>2026-04-06T08:24:57.48Z</time></trkpt><trkpt lat="47.6742683" lon="3.8088883"><ele>242.0</ele><time>2026-04-06T08:24:58.486Z</time></trkpt><trkpt lat="47.6741683" lon="3.8088567"><ele>240.39999999999998</ele><time>2026-04-06T08:24:59.476Z</time></trkpt><trkpt lat="47.67407" lon="3.8088217"><ele>238.79999999999998</ele><time>2026-04-06T08:25:00.483Z</time></trkpt><trkpt lat="47.67397" lon="3.8087917"><ele>237.2</ele><time>2026-04-06T08:25:01.489Z</time></trkpt><trkpt lat="47.6738683" lon="3.8087683"><ele>235.6</ele><time>2026-04-06T08:25:02.496Z</time></trkpt><trkpt lat="47.6737667" lon="3.8087467"><ele>234.0</ele><time>2026-04-06T08:25:03.486Z</time></trkpt><trkpt lat="47.6736633" lon="3.8087183"><ele>233.2</ele><time>2026-04-06T08:25:04.492Z</time></trkpt><trkpt lat="47.6735683" lon="3.8087"><ele>232.39999999999998</ele><time>2026-04-06T08:25:05.481Z</time></trkpt><trkpt lat="47.673475" lon="3.8086867"><ele>231.6</ele><time>2026-04-06T08:25:06.488Z</time></trkpt><trkpt lat="47.6733783" lon="3.80867"><ele>230.8</ele><time>2026-04-06T08:25:07.496Z</time></trkpt><trkpt lat="47.6732817" lon="3.8086483"><ele>230.0</ele><time>2026-04-06T08:25:08.485Z</time></trkpt><trkpt lat="47.6731883" lon="3.8086267"><ele>230.00000000000003</ele><time>2026-04-06T08:25:09.492Z</time></trkpt><trkpt lat="47.6731017" lon="3.8086017"><ele>230.0</ele><time>2026-04-06T08:25:10.482Z</time></trkpt><trkpt lat="47.6730217" lon="3.80857"><ele>230.0</ele><time>2026-04-06T08:25:11.488Z</time></trkpt><trkpt lat="47.6729517" lon="3.8085467"><ele>230.0</ele><time>2026-04-06T08:25:12.495Z</time></trkpt><trkpt lat="47.6728767" lon="3.8085333"><ele>230.00000000000003</ele><time>2026-04-06T08:25:13.485Z</time></trkpt><trkpt lat="47.6727967" lon="3.8085167"><ele>230.0</ele><time>2026-04-06T08:25:14.492Z</time></trkpt><trkpt lat="47.672715" lon="3.8084933"><ele>229.66666666666669</ele><time>2026-04-06T08:25:15.481Z</time></trkpt><trkpt lat="47.6726383" lon="3.8084767"><ele>229.33333333333334</ele><time>2026-04-06T08:25:16.488Z</time></trkpt><trkpt lat="47.6725717" lon="3.8084633"><ele>229.0</ele><time>2026-04-06T08:25:17.477Z</time></trkpt><trkpt lat="47.6724667" lon="3.8084483"><ele>228.66666666666669</ele><time>2026-04-06T08:25:19.491Z</time></trkpt><trkpt lat="47.6724183" lon="3.808345"><ele>228.33333333333334</ele><time>2026-04-06T08:29:32.492Z</time></trkpt><trkpt lat="47.6725" lon="3.80828"><ele>228.0</ele><time>2026-04-06T08:29:34.488Z</time></trkpt><trkpt lat="47.6725583" lon="3.8082333"><ele>228.0</ele><time>2026-04-06T08:29:35.478Z</time></trkpt><trkpt lat="47.6726283" lon="3.80817"><ele>228.0</ele><time>2026-04-06T08:29:36.485Z</time></trkpt><trkpt lat="47.67271" lon="3.8080883"><ele>228.0</ele><time>2026-04-06T08:29:37.49Z</time></trkpt><trkpt lat="47.6727983" lon="3.8079883"><ele>228.0</ele><time>2026-04-06T08:29:38.481Z</time></trkpt><trkpt lat="47.67289" lon="3.8078817"><ele>228.0</ele><time>2026-04-06T08:29:39.488Z</time></trkpt><trkpt lat="47.6729833" lon="3.807775"><ele>229.0</ele><time>2026-04-06T08:29:40.478Z</time></trkpt><trkpt lat="47.673075" lon="3.80767"><ele>230.0</ele><time>2026-04-06T08:29:41.484Z</time></trkpt><trkpt lat="47.6731667" lon="3.807565"><ele>231.0</ele><time>2026-04-06T08:29:42.491Z</time></trkpt><trkpt lat="47.67326" lon="3.80746"><ele>232.0</ele><time>2026-04-06T08:29:43.481Z</time></trkpt><trkpt lat="47.6733533" lon="3.80735"><ele>232.0</ele><time>2026-04-06T08:29:44.487Z</time></trkpt><trkpt lat="47.6734483" lon="3.807235"><ele>232.0</ele><time>2026-04-06T08:29:45.477Z</time></trkpt><trkpt lat="47.6735433" lon="3.8071217"><ele>232.0</ele><time>2026-04-06T08:29:46.484Z</time></trkpt><trkpt lat="47.6736367" lon="3.80701"><ele>232.0</ele><time>2026-04-06T08:29:47.49Z</time></trkpt><trkpt lat="47.67373" lon="3.8069"><ele>233.25</ele><time>2026-04-06T08:29:48.48Z</time></trkpt><trkpt lat="47.673825" lon="3.8067933"><ele>234.5</ele><time>2026-04-06T08:29:49.487Z</time></trkpt><trkpt lat="47.6739217" lon="3.8066933"><ele>235.75</ele><time>2026-04-06T08:29:50.477Z</time></trkpt><trkpt lat="47.6740217" lon="3.8066017"><ele>237.0</ele><time>2026-04-06T08:29:51.483Z</time></trkpt><trkpt lat="47.6741233" lon="3.806515"><ele>237.0</ele><time>2026-04-06T08:29:52.49Z</time></trkpt><trkpt lat="47.674225" lon="3.8064317"><ele>237.0</ele><time>2026-04-06T08:29:53.48Z</time></trkpt><trkpt lat="47.674325" lon="3.806345"><ele>237.0</ele><time>2026-04-06T08:29:54.487Z</time></trkpt><trkpt lat="47.674425" lon="3.80626"><ele>237.0</ele><time>2026-04-06T08:29:55.476Z</time></trkpt><trkpt lat="47.674525" lon="3.8061717"><ele>237.75</ele><time>2026-04-06T08:29:56.483Z</time></trkpt><trkpt lat="47.674625" lon="3.80608"><ele>238.5</ele><time>2026-04-06T08:29:57.473Z</time></trkpt><trkpt lat="47.674725" lon="3.805985"><ele>239.25</ele><time>2026-04-06T08:29:58.496Z</time></trkpt><trkpt lat="47.6748283" lon="3.8058883"><ele>240.0</ele><time>2026-04-06T08:29:59.486Z</time></trkpt><trkpt lat="47.6749317" lon="3.8057883"><ele>240.25</ele><time>2026-04-06T08:30:00.493Z</time></trkpt><trkpt lat="47.67504" lon="3.8056883"><ele>240.5</ele><time>2026-04-06T08:30:01.482Z</time></trkpt><trkpt lat="47.6751433" lon="3.8055883"><ele>240.75</ele><time>2026-04-06T08:30:02.489Z</time></trkpt><trkpt lat="47.6752433" lon="3.8054883"><ele>241.0</ele><time>2026-04-06T08:30:03.495Z</time></trkpt><trkpt lat="47.675335" lon="3.8054"><ele>240.99999999999997</ele><time>2026-04-06T08:30:04.486Z</time></trkpt><trkpt lat="47.6754167" lon="3.8053233"><ele>241.0</ele><time>2026-04-06T08:30:05.492Z</time></trkpt><trkpt lat="47.6754833" lon="3.8052667"><ele>241.0</ele><time>2026-04-06T08:30:06.481Z</time></trkpt><trkpt lat="47.675575" lon="3.80519"><ele>241.0</ele><time>2026-04-06T08:30:08.479Z</time></trkpt><trkpt lat="47.6756233" lon="3.805125"><ele>240.99999999999997</ele><time>2026-04-06T08:30:10.492Z</time></trkpt><trkpt lat="47.6756883" lon="3.805065"><ele>241.0</ele><time>2026-04-06T08:30:12.489Z</time></trkpt><trkpt lat="47.6757867" lon="3.8049917"><ele>240.99999999999997</ele><time>2026-04-06T08:30:14.485Z</time></trkpt><trkpt lat="47.6758533" lon="3.8049483"><ele>241.0</ele><time>2026-04-06T08:30:15.492Z</time></trkpt><trkpt lat="47.675925" lon="3.8048933"><ele>241.0</ele><time>2026-04-06T08:30:16.481Z</time></trkpt><trkpt lat="47.6759967" lon="3.8048217"><ele>241.0</ele><time>2026-04-06T08:30:17.488Z</time></trkpt><trkpt lat="47.6760767" lon="3.8047433"><ele>240.99999999999997</ele><time>2026-04-06T08:30:18.478Z</time></trkpt><trkpt lat="47.6761567" lon="3.8046733"><ele>241.0</ele><time>2026-04-06T08:30:19.485Z</time></trkpt><trkpt lat="47.6762433" lon="3.8046133"><ele>241.0</ele><time>2026-04-06T08:30:20.491Z</time></trkpt><trkpt lat="47.6763267" lon="3.8045567"><ele>241.00000000000003</ele><time>2026-04-06T08:30:21.481Z</time></trkpt><trkpt lat="47.676415" lon="3.804505"><ele>241.00000000000003</ele><time>2026-04-06T08:30:22.487Z</time></trkpt><trkpt lat="47.6765067" lon="3.8044533"><ele>241.0</ele><time>2026-04-06T08:30:23.477Z</time></trkpt><trkpt lat="47.676595" lon="3.80441"><ele>241.0</ele><time>2026-04-06T08:30:24.484Z</time></trkpt><trkpt lat="47.6766817" lon="3.80436"><ele>240.66666666666666</ele><time>2026-04-06T08:30:25.491Z</time></trkpt><trkpt lat="47.6767567" lon="3.8042983"><ele>240.33333333333331</ele><time>2026-04-06T08:30:26.48Z</time></trkpt><trkpt lat="47.6768217" lon="3.8042483"><ele>240.0</ele><time>2026-04-06T08:30:27.486Z</time></trkpt><trkpt lat="47.6768867" lon="3.804205"><ele>239.66666666666669</ele><time>2026-04-06T08:30:28.477Z</time></trkpt><trkpt lat="47.676955" lon="3.8041683"><ele>239.33333333333334</ele><time>2026-04-06T08:30:29.484Z</time></trkpt><trkpt lat="47.67703" lon="3.804135"><ele>239.0</ele><time>2026-04-06T08:30:30.474Z</time></trkpt><trkpt lat="47.6771133" lon="3.804105"><ele>238.79999999999998</ele><time>2026-04-06T08:30:31.497Z</time></trkpt><trkpt lat="47.6772" lon="3.8040683"><ele>238.59999999999997</ele><time>2026-04-06T08:30:32.487Z</time></trkpt><trkpt lat="47.67729" lon="3.804025"><ele>238.4</ele><time>2026-04-06T08:30:33.477Z</time></trkpt><trkpt lat="47.6773833" lon="3.803965"><ele>238.2</ele><time>2026-04-06T08:30:34.483Z</time></trkpt><trkpt lat="47.6774783" lon="3.8039017"><ele>238.0</ele><time>2026-04-06T08:30:35.472Z</time></trkpt><trkpt lat="47.6775733" lon="3.8038317"><ele>238.0</ele><time>2026-04-06T08:30:36.497Z</time></trkpt><trkpt lat="47.6776667" lon="3.8037567"><ele>238.0</ele><time>2026-04-06T08:30:37.487Z</time></trkpt><trkpt lat="47.6777533" lon="3.80369"><ele>238.0</ele><time>2026-04-06T08:30:38.493Z</time></trkpt><trkpt lat="47.67783" lon="3.803635"><ele>238.0</ele><time>2026-04-06T08:30:39.483Z</time></trkpt><trkpt lat="47.67789" lon="3.80359"><ele>238.0</ele><time>2026-04-06T08:30:40.49Z</time></trkpt><trkpt lat="47.6779833" lon="3.8035333"><ele>238.4</ele><time>2026-04-06T08:30:42.485Z</time></trkpt><trkpt lat="47.6780783" lon="3.8034633"><ele>238.8</ele><time>2026-04-06T08:30:44.483Z</time></trkpt><trkpt lat="47.678155" lon="3.8033783"><ele>239.2</ele><time>2026-04-06T08:30:46.479Z</time></trkpt><trkpt lat="47.6782567" lon="3.8032817"><ele>239.6</ele><time>2026-04-06T08:30:48.491Z</time></trkpt><trkpt lat="47.6783233" lon="3.803215"><ele>240.0</ele><time>2026-04-06T08:30:49.482Z</time></trkpt><trkpt lat="47.6784" lon="3.8031433"><ele>240.0</ele><time>2026-04-06T08:30:50.489Z</time></trkpt><trkpt lat="47.6784833" lon="3.8030633"><ele>240.0</ele><time>2026-04-06T08:30:51.479Z</time></trkpt><trkpt lat="47.67857" lon="3.802975"><ele>240.0</ele><time>2026-04-06T08:30:52.485Z</time></trkpt><trkpt lat="47.6786633" lon="3.8028833"><ele>240.0</ele><time>2026-04-06T08:30:53.492Z</time></trkpt><trkpt lat="47.6787583" lon="3.8027917"><ele>240.0</ele><time>2026-04-06T08:30:54.482Z</time></trkpt><trkpt lat="47.6788567" lon="3.8026933"><ele>240.5</ele><time>2026-04-06T08:30:55.489Z</time></trkpt><trkpt lat="47.678955" lon="3.802595"><ele>241.0</ele><time>2026-04-06T08:30:56.478Z</time></trkpt><trkpt lat="47.6790517" lon="3.8024867"><ele>241.5</ele><time>2026-04-06T08:30:57.485Z</time></trkpt><trkpt lat="47.679145" lon="3.8023767"><ele>242.0</ele><time>2026-04-06T08:30:58.492Z</time></trkpt><trkpt lat="47.6792417" lon="3.8022633"><ele>242.0</ele><time>2026-04-06T08:30:59.481Z</time></trkpt><trkpt lat="47.6793367" lon="3.8021533"><ele>242.0</ele><time>2026-04-06T08:31:00.488Z</time></trkpt><trkpt lat="47.6794333" lon="3.8020417"><ele>242.0</ele><time>2026-04-06T08:31:01.478Z</time></trkpt><trkpt lat="47.67953" lon="3.80193"><ele>242.0</ele><time>2026-04-06T08:31:02.485Z</time></trkpt><trkpt lat="47.6796283" lon="3.8018217"><ele>242.5</ele><time>2026-04-06T08:31:03.473Z</time></trkpt><trkpt lat="47.6797233" lon="3.80172"><ele>243.0</ele><time>2026-04-06T08:31:04.481Z</time></trkpt><trkpt lat="47.6798183" lon="3.8016233"><ele>243.5</ele><time>2026-04-06T08:31:05.488Z</time></trkpt><trkpt lat="47.6799117" lon="3.80153"><ele>244.0</ele><time>2026-04-06T08:31:06.478Z</time></trkpt><trkpt lat="47.6800083" lon="3.8014417"><ele>244.0</ele><time>2026-04-06T08:31:07.484Z</time></trkpt><trkpt lat="47.6801017" lon="3.8013633"><ele>243.99999999999997</ele><time>2026-04-06T08:31:08.474Z</time></trkpt><trkpt lat="47.6801967" lon="3.80129"><ele>243.99999999999997</ele><time>2026-04-06T08:31:09.497Z</time></trkpt><trkpt lat="47.680295" lon="3.8012167"><ele>244.0</ele><time>2026-04-06T08:31:10.487Z</time></trkpt><trkpt lat="47.6803967" lon="3.80114"><ele>244.0</ele><time>2026-04-06T08:31:11.494Z</time></trkpt><trkpt lat="47.6804967" lon="3.8010617"><ele>243.6</ele><time>2026-04-06T08:31:12.483Z</time></trkpt><trkpt lat="47.6805933" lon="3.8009883"><ele>243.2</ele><time>2026-04-06T08:31:13.489Z</time></trkpt><trkpt lat="47.6806883" lon="3.8009117"><ele>242.79999999999998</ele><time>2026-04-06T08:31:14.479Z</time></trkpt><trkpt lat="47.6807833" lon="3.8008383"><ele>242.39999999999998</ele><time>2026-04-06T08:31:15.487Z</time></trkpt><trkpt lat="47.6808783" lon="3.8007617"><ele>242.0</ele><time>2026-04-06T08:31:16.494Z</time></trkpt><trkpt lat="47.6809733" lon="3.8006867"><ele>242.0</ele><time>2026-04-06T08:31:17.483Z</time></trkpt><trkpt lat="47.6810667" lon="3.8006133"><ele>242.0</ele><time>2026-04-06T08:31:18.49Z</time></trkpt><trkpt lat="47.68116" lon="3.8005383"><ele>242.0</ele><time>2026-04-06T08:31:19.48Z</time></trkpt><trkpt lat="47.6812483" lon="3.80047"><ele>242.0</ele><time>2026-04-06T08:31:20.487Z</time></trkpt><trkpt lat="47.6813433" lon="3.8003983"><ele>242.0</ele><time>2026-04-06T08:31:21.493Z</time></trkpt><trkpt lat="47.6814333" lon="3.8003283"><ele>241.8</ele><time>2026-04-06T08:31:22.483Z</time></trkpt><trkpt lat="47.6815233" lon="3.80026"><ele>241.6</ele><time>2026-04-06T08:31:23.49Z</time></trkpt><trkpt lat="47.681615" lon="3.8001917"><ele>241.40000000000003</ele><time>2026-04-06T08:31:24.48Z</time></trkpt><trkpt lat="47.6817083" lon="3.800125"><ele>241.20000000000002</ele><time>2026-04-06T08:31:25.486Z</time></trkpt><trkpt lat="47.68179" lon="3.8000667"><ele>241.0</ele><time>2026-04-06T08:31:26.492Z</time></trkpt><trkpt lat="47.681865" lon="3.8000133"><ele>240.83333333333331</ele><time>2026-04-06T08:31:27.482Z</time></trkpt><trkpt lat="47.68193" lon="3.7999633"><ele>240.66666666666666</ele><time>2026-04-06T08:31:28.489Z</time></trkpt><trkpt lat="47.6819983" lon="3.7999033"><ele>240.5</ele><time>2026-04-06T08:31:29.478Z</time></trkpt><trkpt lat="47.6820683" lon="3.79984"><ele>240.33333333333331</ele><time>2026-04-06T08:31:30.486Z</time></trkpt><trkpt lat="47.68215" lon="3.7997783"><ele>240.16666666666666</ele><time>2026-04-06T08:31:31.491Z</time></trkpt><trkpt lat="47.6822417" lon="3.7997183"><ele>240.0</ele><time>2026-04-06T08:31:32.482Z</time></trkpt><trkpt lat="47.6823383" lon="3.79966"><ele>239.25</ele><time>2026-04-06T08:31:33.489Z</time></trkpt><trkpt lat="47.6824483" lon="3.799585"><ele>238.5</ele><time>2026-04-06T08:31:34.479Z</time></trkpt><trkpt lat="47.6825783" lon="3.799505"><ele>237.75</ele><time>2026-04-06T08:31:35.485Z</time></trkpt><trkpt lat="47.682715" lon="3.7994233"><ele>237.0</ele><time>2026-04-06T08:31:36.492Z</time></trkpt><trkpt lat="47.6828433" lon="3.7993567"><ele>236.0</ele><time>2026-04-06T08:31:37.482Z</time></trkpt><trkpt lat="47.682965" lon="3.799305"><ele>235.0</ele><time>2026-04-06T08:31:38.489Z</time></trkpt><trkpt lat="47.68307" lon="3.7992433"><ele>234.0</ele><time>2026-04-06T08:31:39.478Z</time></trkpt><trkpt lat="47.68317" lon="3.799155"><ele>233.0</ele><time>2026-04-06T08:31:40.485Z</time></trkpt><trkpt lat="47.6832633" lon="3.7990317"><ele>233.0</ele><time>2026-04-06T08:31:41.474Z</time></trkpt><trkpt lat="47.6833517" lon="3.798875"><ele>233.0</ele><time>2026-04-06T08:31:42.481Z</time></trkpt><trkpt lat="47.6834417" lon="3.7987067"><ele>233.0</ele><time>2026-04-06T08:31:43.487Z</time></trkpt><trkpt lat="47.6835283" lon="3.7985317"><ele>233.0</ele><time>2026-04-06T08:31:44.477Z</time></trkpt><trkpt lat="47.6836317" lon="3.7983567"><ele>234.0</ele><time>2026-04-06T08:31:45.485Z</time></trkpt><trkpt lat="47.6837367" lon="3.7981767"><ele>235.0</ele><time>2026-04-06T08:31:46.474Z</time></trkpt><trkpt lat="47.6838483" lon="3.7979983"><ele>236.0</ele><time>2026-04-06T08:31:47.498Z</time></trkpt><trkpt lat="47.68395" lon="3.797845"><ele>236.0</ele><time>2026-04-06T08:31:48.488Z</time></trkpt><trkpt lat="47.684045" lon="3.7977083"><ele>236.0</ele><time>2026-04-06T08:31:49.494Z</time></trkpt><trkpt lat="47.684145" lon="3.7975933"><ele>236.0</ele><time>2026-04-06T08:31:50.483Z</time></trkpt><trkpt lat="47.6842533" lon="3.7974767"><ele>236.0</ele><time>2026-04-06T08:31:51.491Z</time></trkpt><trkpt lat="47.6843533" lon="3.79735"><ele>237.25</ele><time>2026-04-06T08:31:52.481Z</time></trkpt><trkpt lat="47.68445" lon="3.7972117"><ele>238.5</ele><time>2026-04-06T08:31:53.487Z</time></trkpt><trkpt lat="47.6845583" lon="3.797075"><ele>239.75</ele><time>2026-04-06T08:31:54.494Z</time></trkpt><trkpt lat="47.6846633" lon="3.7969433"><ele>241.0</ele><time>2026-04-06T08:31:55.484Z</time></trkpt><trkpt lat="47.6847683" lon="3.7968067"><ele>241.5</ele><time>2026-04-06T08:31:56.489Z</time></trkpt><trkpt lat="47.68488" lon="3.7966617"><ele>242.0</ele><time>2026-04-06T08:31:57.48Z</time></trkpt><trkpt lat="47.68499" lon="3.7965317"><ele>242.5</ele><time>2026-04-06T08:31:58.487Z</time></trkpt><trkpt lat="47.6850983" lon="3.796415"><ele>243.0</ele><time>2026-04-06T08:31:59.494Z</time></trkpt><trkpt lat="47.6852" lon="3.79629"><ele>243.5</ele><time>2026-04-06T08:32:00.482Z</time></trkpt><trkpt lat="47.68529" lon="3.7961683"><ele>244.0</ele><time>2026-04-06T08:32:01.49Z</time></trkpt><trkpt lat="47.6854017" lon="3.7960683"><ele>244.5</ele><time>2026-04-06T08:32:02.48Z</time></trkpt><trkpt lat="47.685515" lon="3.7959617"><ele>245.0</ele><time>2026-04-06T08:32:03.487Z</time></trkpt><trkpt lat="47.6856117" lon="3.795855"><ele>245.2</ele><time>2026-04-06T08:32:04.492Z</time></trkpt><trkpt lat="47.6856883" lon="3.7957667"><ele>245.4</ele><time>2026-04-06T08:32:05.483Z</time></trkpt><trkpt lat="47.685745" lon="3.795705"><ele>245.60000000000002</ele><time>2026-04-06T08:32:06.49Z</time></trkpt><trkpt lat="47.6858333" lon="3.7956667"><ele>245.8</ele><time>2026-04-06T08:32:08.485Z</time></trkpt><trkpt lat="47.6859417" lon="3.7957833"><ele>246.0</ele><time>2026-04-06T08:32:10.483Z</time></trkpt><trkpt lat="47.6860283" lon="3.79587"><ele>246.0</ele><time>2026-04-06T08:32:11.489Z</time></trkpt><trkpt lat="47.6861317" lon="3.7959683"><ele>246.0</ele><time>2026-04-06T08:32:12.479Z</time></trkpt><trkpt lat="47.68624" lon="3.7960833"><ele>246.0</ele><time>2026-04-06T08:32:13.486Z</time></trkpt><trkpt lat="47.686345" lon="3.796195"><ele>246.0</ele><time>2026-04-06T08:32:14.476Z</time></trkpt><trkpt lat="47.686425" lon="3.7962867"><ele>246.0</ele><time>2026-04-06T08:32:15.482Z</time></trkpt><trkpt lat="47.6864783" lon="3.79635"><ele>246.00000000000003</ele><time>2026-04-06T08:32:16.489Z</time></trkpt><trkpt lat="47.6865383" lon="3.7964233"><ele>246.00000000000003</ele><time>2026-04-06T08:32:18.485Z</time></trkpt><trkpt lat="47.68664" lon="3.7965167"><ele>246.0</ele><time>2026-04-06T08:32:20.481Z</time></trkpt><trkpt lat="47.6867183" lon="3.79661"><ele>246.0</ele><time>2026-04-06T08:32:21.488Z</time></trkpt><trkpt lat="47.6868133" lon="3.79671"><ele>246.0</ele><time>2026-04-06T08:32:22.478Z</time></trkpt><trkpt lat="47.6869133" lon="3.796825"><ele>246.0</ele><time>2026-04-06T08:32:23.485Z</time></trkpt><trkpt lat="47.6870167" lon="3.7969417"><ele>246.0</ele><time>2026-04-06T08:32:24.475Z</time></trkpt><trkpt lat="47.68713" lon="3.7970717"><ele>246.0</ele><time>2026-04-06T08:32:25.481Z</time></trkpt><trkpt lat="47.687245" lon="3.7972033"><ele>245.66666666666669</ele><time>2026-04-06T08:32:26.488Z</time></trkpt><trkpt lat="47.68736" lon="3.79734"><ele>245.33333333333334</ele><time>2026-04-06T08:32:27.495Z</time></trkpt><trkpt lat="47.6874817" lon="3.79749"><ele>245.0</ele><time>2026-04-06T08:32:28.484Z</time></trkpt><trkpt lat="47.6875967" lon="3.7976367"><ele>245.25</ele><time>2026-04-06T08:32:29.491Z</time></trkpt><trkpt lat="47.6877033" lon="3.79776"><ele>245.5</ele><time>2026-04-06T08:32:30.481Z</time></trkpt><trkpt lat="47.6878017" lon="3.7978683"><ele>245.75</ele><time>2026-04-06T08:32:31.488Z</time></trkpt><trkpt lat="47.6878883" lon="3.7979633"><ele>246.0</ele><time>2026-04-06T08:32:32.494Z</time></trkpt><trkpt lat="47.6879617" lon="3.7980467"><ele>245.83333333333334</ele><time>2026-04-06T08:32:33.484Z</time></trkpt><trkpt lat="47.6880233" lon="3.7981217"><ele>245.66666666666669</ele><time>2026-04-06T08:32:34.491Z</time></trkpt><trkpt lat="47.6880817" lon="3.7981967"><ele>245.5</ele><time>2026-04-06T08:32:35.481Z</time></trkpt><trkpt lat="47.68814" lon="3.7982717"><ele>245.33333333333334</ele><time>2026-04-06T08:32:36.487Z</time></trkpt><trkpt lat="47.6881983" lon="3.798345"><ele>245.16666666666669</ele><time>2026-04-06T08:32:37.494Z</time></trkpt><trkpt lat="47.6882567" lon="3.7984067"><ele>245.0</ele><time>2026-04-06T08:32:38.483Z</time></trkpt><trkpt lat="47.688335" lon="3.7985217"><ele>245.0</ele><time>2026-04-06T08:32:40.48Z</time></trkpt><trkpt lat="47.6883483" lon="3.798625"><ele>245.0</ele><time>2026-04-06T08:32:41.487Z</time></trkpt><trkpt lat="47.688335" lon="3.7987467"><ele>245.0</ele><time>2026-04-06T08:32:42.493Z</time></trkpt><trkpt lat="47.6883" lon="3.7988717"><ele>245.0</ele><time>2026-04-06T08:32:43.483Z</time></trkpt><trkpt lat="47.6882633" lon="3.79901"><ele>245.0</ele><time>2026-04-06T08:32:44.49Z</time></trkpt><trkpt lat="47.6882167" lon="3.79917"><ele>245.5</ele><time>2026-04-06T08:32:45.48Z</time></trkpt><trkpt lat="47.6881717" lon="3.79935"><ele>246.0</ele><time>2026-04-06T08:32:46.486Z</time></trkpt><trkpt lat="47.68813" lon="3.7995433"><ele>246.5</ele><time>2026-04-06T08:32:47.476Z</time></trkpt><trkpt lat="47.68808" lon="3.7997483"><ele>247.0</ele><time>2026-04-06T08:32:48.483Z</time></trkpt><trkpt lat="47.6880217" lon="3.7999567"><ele>247.0</ele><time>2026-04-06T08:32:49.49Z</time></trkpt><trkpt lat="47.6879683" lon="3.8001617"><ele>247.0</ele><time>2026-04-06T08:32:50.48Z</time></trkpt><trkpt lat="47.68792" lon="3.8003617"><ele>247.0</ele><time>2026-04-06T08:32:51.486Z</time></trkpt><trkpt lat="47.687865" lon="3.8005633"><ele>247.0</ele><time>2026-04-06T08:32:52.476Z</time></trkpt><trkpt lat="47.6878033" lon="3.800765"><ele>246.66666666666666</ele><time>2026-04-06T08:32:53.483Z</time></trkpt><trkpt lat="47.6877433" lon="3.80097"><ele>246.33333333333331</ele><time>2026-04-06T08:32:54.488Z</time></trkpt><trkpt lat="47.68768" lon="3.8011883"><ele>246.0</ele><time>2026-04-06T08:32:55.479Z</time></trkpt><trkpt lat="47.6876167" lon="3.8014117"><ele>246.0</ele><time>2026-04-06T08:32:56.485Z</time></trkpt><trkpt lat="47.68756" lon="3.8016217"><ele>246.0</ele><time>2026-04-06T08:32:57.475Z</time></trkpt><trkpt lat="47.687505" lon="3.8018333"><ele>246.0</ele><time>2026-04-06T08:32:58.481Z</time></trkpt><trkpt lat="47.68745" lon="3.80204"><ele>246.66666666666669</ele><time>2026-04-06T08:32:59.489Z</time></trkpt><trkpt lat="47.68739" lon="3.8022533"><ele>247.33333333333334</ele><time>2026-04-06T08:33:00.496Z</time></trkpt><trkpt lat="47.68733" lon="3.8024683"><ele>248.0</ele><time>2026-04-06T08:33:01.485Z</time></trkpt><trkpt lat="47.68727" lon="3.8026817"><ele>248.33333333333334</ele><time>2026-04-06T08:33:02.492Z</time></trkpt><trkpt lat="47.687205" lon="3.8029"><ele>248.66666666666669</ele><time>2026-04-06T08:33:03.481Z</time></trkpt><trkpt lat="47.68714" lon="3.80313"><ele>249.0</ele><time>2026-04-06T08:33:04.489Z</time></trkpt><trkpt lat="47.6870717" lon="3.8033633"><ele>249.66666666666669</ele><time>2026-04-06T08:33:05.495Z</time></trkpt><trkpt lat="47.687" lon="3.8035867"><ele>250.33333333333334</ele><time>2026-04-06T08:33:06.485Z</time></trkpt><trkpt lat="47.6869317" lon="3.8037933"><ele>251.0</ele><time>2026-04-06T08:33:07.492Z</time></trkpt><trkpt lat="47.68687" lon="3.803995"><ele>251.0</ele><time>2026-04-06T08:33:08.481Z</time></trkpt><trkpt lat="47.6868117" lon="3.8041983"><ele>251.0</ele><time>2026-04-06T08:33:09.488Z</time></trkpt><trkpt lat="47.6867633" lon="3.80442"><ele>251.0</ele><time>2026-04-06T08:33:10.495Z</time></trkpt><trkpt lat="47.6867267" lon="3.8046567"><ele>252.0</ele><time>2026-04-06T08:33:11.485Z</time></trkpt><trkpt lat="47.6866917" lon="3.804905"><ele>253.0</ele><time>2026-04-06T08:33:12.491Z</time></trkpt><trkpt lat="47.686655" lon="3.8051583"><ele>254.0</ele><time>2026-04-06T08:33:13.481Z</time></trkpt><trkpt lat="47.6866183" lon="3.80542"><ele>254.33333333333334</ele><time>2026-04-06T08:33:14.488Z</time></trkpt><trkpt lat="47.6865867" lon="3.8056883"><ele>254.66666666666669</ele><time>2026-04-06T08:33:15.494Z</time></trkpt><trkpt lat="47.6865533" lon="3.80596"><ele>255.0</ele><time>2026-04-06T08:33:16.484Z</time></trkpt><trkpt lat="47.6865217" lon="3.8062267"><ele>255.66666666666669</ele><time>2026-04-06T08:33:17.49Z</time></trkpt><trkpt lat="47.686485" lon="3.8064783"><ele>256.33333333333337</ele><time>2026-04-06T08:33:18.481Z</time></trkpt><trkpt lat="47.6864483" lon="3.8067267"><ele>257.0</ele><time>2026-04-06T08:33:19.487Z</time></trkpt><trkpt lat="47.6864033" lon="3.80698"><ele>257.6666666666667</ele><time>2026-04-06T08:33:20.477Z</time></trkpt><trkpt lat="47.6863517" lon="3.80723"><ele>258.3333333333333</ele><time>2026-04-06T08:33:21.484Z</time></trkpt><trkpt lat="47.6863" lon="3.80748"><ele>259.0</ele><time>2026-04-06T08:33:22.489Z</time></trkpt><trkpt lat="47.6862535" lon="3.8077102"><ele>260.0</ele><time>2026-04-06T08:33:23.48Z</time></trkpt><trkpt lat="47.6862049" lon="3.807943"><ele>261.0</ele><time>2026-04-06T08:33:24.486Z</time></trkpt><trkpt lat="47.6861539" lon="3.8081632"><ele>262.0</ele><time>2026-04-06T08:33:25.477Z</time></trkpt><trkpt lat="47.6861018" lon="3.8083924"><ele>261.0</ele><time>2026-04-06T08:33:26.483Z</time></trkpt><trkpt lat="47.6860533" lon="3.8086325"><ele>260.0</ele><time>2026-04-06T08:33:27.49Z</time></trkpt><trkpt lat="47.6860136" lon="3.8088836"><ele>259.0</ele><time>2026-04-06T08:33:28.48Z</time></trkpt><trkpt lat="47.6859794" lon="3.8091439"><ele>259.3333333333333</ele><time>2026-04-06T08:33:29.487Z</time></trkpt><trkpt lat="47.6859453" lon="3.809414"><ele>259.6666666666667</ele><time>2026-04-06T08:33:30.475Z</time></trkpt><trkpt lat="47.6859054" lon="3.8096884"><ele>260.0</ele><time>2026-04-06T08:33:31.483Z</time></trkpt><trkpt lat="47.6858702" lon="3.8099475"><ele>260.0</ele><time>2026-04-06T08:33:32.49Z</time></trkpt><trkpt lat="47.6858397" lon="3.810169"><ele>260.0</ele><time>2026-04-06T08:33:33.479Z</time></trkpt><trkpt lat="47.6858125" lon="3.8103574"><ele>260.0</ele><time>2026-04-06T08:33:34.486Z</time></trkpt><trkpt lat="47.6858036" lon="3.8105291"><ele>260.0</ele><time>2026-04-06T08:33:35.475Z</time></trkpt><trkpt lat="47.6858232" lon="3.810726"><ele>260.0</ele><time>2026-04-06T08:33:36.483Z</time></trkpt><trkpt lat="47.6858438" lon="3.8109468"><ele>260.0</ele><time>2026-04-06T08:33:37.489Z</time></trkpt><trkpt lat="47.6858634" lon="3.8111883"><ele>260.0</ele><time>2026-04-06T08:33:38.495Z</time></trkpt><trkpt lat="47.685883" lon="3.8114437"><ele>259.6666666666667</ele><time>2026-04-06T08:33:39.486Z</time></trkpt><trkpt lat="47.6859012" lon="3.8117135"><ele>259.3333333333333</ele><time>2026-04-06T08:33:40.491Z</time></trkpt><trkpt lat="47.6859209" lon="3.8119841"><ele>259.0</ele><time>2026-04-06T08:33:41.481Z</time></trkpt><trkpt lat="47.6859435" lon="3.8122646"><ele>258.3333333333333</ele><time>2026-04-06T08:33:42.488Z</time></trkpt><trkpt lat="47.6859651" lon="3.8125597"><ele>257.6666666666667</ele><time>2026-04-06T08:33:43.495Z</time></trkpt><trkpt lat="47.6859899" lon="3.8128473"><ele>257.0</ele><time>2026-04-06T08:33:44.484Z</time></trkpt><trkpt lat="47.6860133" lon="3.8131165"><ele>255.66666666666669</ele><time>2026-04-06T08:33:45.492Z</time></trkpt><trkpt lat="47.6860336" lon="3.8133683"><ele>254.33333333333331</ele><time>2026-04-06T08:33:46.482Z</time></trkpt><trkpt lat="47.6860539" lon="3.8136173"><ele>253.0</ele><time>2026-04-06T08:33:47.489Z</time></trkpt><trkpt lat="47.686078" lon="3.8138689"><ele>253.0</ele><time>2026-04-06T08:33:48.494Z</time></trkpt><trkpt lat="47.6860996" lon="3.8141192"><ele>253.0</ele><time>2026-04-06T08:33:49.485Z</time></trkpt><trkpt lat="47.6861202" lon="3.8143875"><ele>253.0</ele><time>2026-04-06T08:33:50.491Z</time></trkpt><trkpt lat="47.686141" lon="3.8146701"><ele>251.33333333333331</ele><time>2026-04-06T08:33:51.482Z</time></trkpt><trkpt lat="47.6861581" lon="3.8149675"><ele>249.66666666666669</ele><time>2026-04-06T08:33:52.488Z</time></trkpt><trkpt lat="47.6861711" lon="3.8152595"><ele>248.0</ele><time>2026-04-06T08:33:53.478Z</time></trkpt><trkpt lat="47.6861845" lon="3.8155459"><ele>246.0</ele><time>2026-04-06T08:33:54.485Z</time></trkpt><trkpt lat="47.6862048" lon="3.8158214"><ele>244.0</ele><time>2026-04-06T08:33:55.491Z</time></trkpt><trkpt lat="47.6862257" lon="3.8160902"><ele>242.0</ele><time>2026-04-06T08:33:56.481Z</time></trkpt><trkpt lat="47.6862443" lon="3.8163523"><ele>242.0</ele><time>2026-04-06T08:33:57.488Z</time></trkpt><trkpt lat="47.6862613" lon="3.8165943"><ele>242.0</ele><time>2026-04-06T08:33:58.477Z</time></trkpt><trkpt lat="47.6862787" lon="3.8168133"><ele>242.0</ele><time>2026-04-06T08:33:59.483Z</time></trkpt><trkpt lat="47.6862996" lon="3.8170121"><ele>242.0</ele><time>2026-04-06T08:34:00.491Z</time></trkpt><trkpt lat="47.6863229" lon="3.8172013"><ele>241.75</ele><time>2026-04-06T08:34:01.48Z</time></trkpt><trkpt lat="47.6863436" lon="3.8173916"><ele>241.5</ele><time>2026-04-06T08:34:02.487Z</time></trkpt><trkpt lat="47.686365" lon="3.8175739"><ele>241.25</ele><time>2026-04-06T08:34:03.476Z</time></trkpt><trkpt lat="47.6863883" lon="3.817741"><ele>241.0</ele><time>2026-04-06T08:34:04.483Z</time></trkpt><trkpt lat="47.6864083" lon="3.8178893"><ele>241.33333333333331</ele><time>2026-04-06T08:34:05.49Z</time></trkpt><trkpt lat="47.6864228" lon="3.8180181"><ele>241.66666666666666</ele><time>2026-04-06T08:34:06.48Z</time></trkpt><trkpt lat="47.6864348" lon="3.8181352"><ele>242.0</ele><time>2026-04-06T08:34:07.487Z</time></trkpt><trkpt lat="47.6864481" lon="3.8182416"><ele>242.33333333333331</ele><time>2026-04-06T08:34:08.477Z</time></trkpt><trkpt lat="47.6864627" lon="3.818335"><ele>242.66666666666666</ele><time>2026-04-06T08:34:09.483Z</time></trkpt><trkpt lat="47.6864857" lon="3.8184807"><ele>243.0</ele><time>2026-04-06T08:34:11.48Z</time></trkpt><trkpt lat="47.6865083" lon="3.8186143"><ele>243.25</ele><time>2026-04-06T08:34:13.476Z</time></trkpt><trkpt lat="47.6865489" lon="3.81882"><ele>243.5</ele><time>2026-04-06T08:34:15.473Z</time></trkpt><trkpt lat="47.6865808" lon="3.8189739"><ele>243.75</ele><time>2026-04-06T08:34:16.496Z</time></trkpt><trkpt lat="47.686613" lon="3.8191483"><ele>244.0</ele><time>2026-04-06T08:34:17.486Z</time></trkpt><trkpt lat="47.6866467" lon="3.8193455"><ele>244.0</ele><time>2026-04-06T08:34:18.492Z</time></trkpt><trkpt lat="47.686683" lon="3.8195566"><ele>244.0</ele><time>2026-04-06T08:34:19.483Z</time></trkpt><trkpt lat="47.6867235" lon="3.8197817"><ele>244.0</ele><time>2026-04-06T08:34:20.489Z</time></trkpt><trkpt lat="47.6867616" lon="3.8200194"><ele>244.0</ele><time>2026-04-06T08:34:21.495Z</time></trkpt><trkpt lat="47.6867855" lon="3.8202698"><ele>244.0</ele><time>2026-04-06T08:34:22.486Z</time></trkpt><trkpt lat="47.6867954" lon="3.8205279"><ele>244.0</ele><time>2026-04-06T08:34:23.492Z</time></trkpt><trkpt lat="47.6868016" lon="3.8208027"><ele>243.66666666666666</ele><time>2026-04-06T08:34:24.481Z</time></trkpt><trkpt lat="47.6868005" lon="3.8210696"><ele>243.33333333333331</ele><time>2026-04-06T08:34:25.489Z</time></trkpt><trkpt lat="47.6867933" lon="3.8213232"><ele>243.0</ele><time>2026-04-06T08:34:26.479Z</time></trkpt><trkpt lat="47.6867792" lon="3.8215664"><ele>243.0</ele><time>2026-04-06T08:34:27.484Z</time></trkpt><trkpt lat="47.6867602" lon="3.8217935"><ele>243.0</ele><time>2026-04-06T08:34:28.492Z</time></trkpt><trkpt lat="47.6867361" lon="3.8219914"><ele>243.0</ele><time>2026-04-06T08:34:29.482Z</time></trkpt><trkpt lat="47.6867094" lon="3.8221845"><ele>243.0</ele><time>2026-04-06T08:34:30.489Z</time></trkpt><trkpt lat="47.6866862" lon="3.8223442"><ele>242.83333333333334</ele><time>2026-04-06T08:34:31.477Z</time></trkpt><trkpt lat="47.6866687" lon="3.8224653"><ele>242.66666666666669</ele><time>2026-04-06T08:34:32.485Z</time></trkpt><trkpt lat="47.6866519" lon="3.8225582"><ele>242.5</ele><time>2026-04-06T08:34:33.492Z</time></trkpt><trkpt lat="47.6866498" lon="3.8227122"><ele>242.33333333333334</ele><time>2026-04-06T08:34:35.488Z</time></trkpt><trkpt lat="47.6867412" lon="3.8227779"><ele>242.16666666666669</ele><time>2026-04-06T08:34:38.491Z</time></trkpt><trkpt lat="47.6868086" lon="3.8228031"><ele>242.0</ele><time>2026-04-06T08:34:39.481Z</time></trkpt><trkpt lat="47.6869068" lon="3.822816"><ele>243.25</ele><time>2026-04-06T08:34:40.487Z</time></trkpt><trkpt lat="47.6870315" lon="3.8228197"><ele>244.5</ele><time>2026-04-06T08:34:41.478Z</time></trkpt><trkpt lat="47.6871898" lon="3.8228215"><ele>245.75</ele><time>2026-04-06T08:34:42.484Z</time></trkpt><trkpt lat="47.6873515" lon="3.8228202"><ele>247.0</ele><time>2026-04-06T08:34:43.491Z</time></trkpt><trkpt lat="47.6875176" lon="3.8228158"><ele>247.0</ele><time>2026-04-06T08:34:44.481Z</time></trkpt><trkpt lat="47.6876898" lon="3.822813"><ele>247.0</ele><time>2026-04-06T08:34:45.487Z</time></trkpt><trkpt lat="47.687864" lon="3.8228131"><ele>247.0</ele><time>2026-04-06T08:34:46.477Z</time></trkpt><trkpt lat="47.6880388" lon="3.8228119"><ele>247.33333333333331</ele><time>2026-04-06T08:34:47.484Z</time></trkpt><trkpt lat="47.6882228" lon="3.8228083"><ele>247.66666666666669</ele><time>2026-04-06T08:34:48.474Z</time></trkpt><trkpt lat="47.6884117" lon="3.8228068"><ele>248.0</ele><time>2026-04-06T08:34:49.496Z</time></trkpt><trkpt lat="47.6886021" lon="3.8228016"><ele>248.66666666666669</ele><time>2026-04-06T08:34:50.487Z</time></trkpt><trkpt lat="47.6887946" lon="3.8227917"><ele>249.33333333333331</ele><time>2026-04-06T08:34:51.477Z</time></trkpt><trkpt lat="47.6889905" lon="3.8227779"><ele>250.0</ele><time>2026-04-06T08:34:52.483Z</time></trkpt><trkpt lat="47.6891855" lon="3.8227624"><ele>250.0</ele><time>2026-04-06T08:34:53.473Z</time></trkpt><trkpt lat="47.6893882" lon="3.8227489"><ele>250.0</ele><time>2026-04-06T08:34:54.496Z</time></trkpt><trkpt lat="47.6895818" lon="3.8227345"><ele>250.0</ele><time>2026-04-06T08:34:55.487Z</time></trkpt><trkpt lat="47.6897611" lon="3.8227189"><ele>250.75</ele><time>2026-04-06T08:34:56.492Z</time></trkpt><trkpt lat="47.6899217" lon="3.8227079"><ele>251.5</ele><time>2026-04-06T08:34:57.483Z</time></trkpt><trkpt lat="47.6900654" lon="3.8226986"><ele>252.25</ele><time>2026-04-06T08:34:58.489Z</time></trkpt><trkpt lat="47.6901923" lon="3.8226861"><ele>253.0</ele><time>2026-04-06T08:34:59.48Z</time></trkpt><trkpt lat="47.6903165" lon="3.8226615"><ele>254.0</ele><time>2026-04-06T08:35:00.486Z</time></trkpt><trkpt lat="47.6904433" lon="3.8226307"><ele>255.0</ele><time>2026-04-06T08:35:01.493Z</time></trkpt><trkpt lat="47.6905774" lon="3.8225937"><ele>256.0</ele><time>2026-04-06T08:35:02.483Z</time></trkpt><trkpt lat="47.6907079" lon="3.8225587"><ele>257.0</ele><time>2026-04-06T08:35:03.489Z</time></trkpt><trkpt lat="47.6908212" lon="3.8225293"><ele>257.0</ele><time>2026-04-06T08:35:04.478Z</time></trkpt><trkpt lat="47.690914" lon="3.8225285"><ele>257.0</ele><time>2026-04-06T08:35:05.486Z</time></trkpt><trkpt lat="47.6909921" lon="3.8225531"><ele>257.0</ele><time>2026-04-06T08:35:06.491Z</time></trkpt><trkpt lat="47.6910636" lon="3.8226032"><ele>257.0</ele><time>2026-04-06T08:35:07.482Z</time></trkpt><trkpt lat="47.6911234" lon="3.8226766"><ele>257.0</ele><time>2026-04-06T08:35:08.489Z</time></trkpt><trkpt lat="47.6911645" lon="3.8227758"><ele>257.0</ele><time>2026-04-06T08:35:09.479Z</time></trkpt><trkpt lat="47.6911667" lon="3.8229217"><ele>257.25</ele><time>2026-04-06T08:35:10.485Z</time></trkpt><trkpt lat="47.6911417" lon="3.8230683"><ele>257.5</ele><time>2026-04-06T08:35:11.492Z</time></trkpt><trkpt lat="47.6911017" lon="3.8232167"><ele>257.75</ele><time>2026-04-06T08:35:12.481Z</time></trkpt><trkpt lat="47.69103" lon="3.823405"><ele>258.0</ele><time>2026-04-06T08:35:13.489Z</time></trkpt><trkpt lat="47.6909617" lon="3.8235967"><ele>257.25</ele><time>2026-04-06T08:35:14.478Z</time></trkpt><trkpt lat="47.690895" lon="3.8237833"><ele>256.5</ele><time>2026-04-06T08:35:15.485Z</time></trkpt><trkpt lat="47.6908383" lon="3.8239667"><ele>255.75</ele><time>2026-04-06T08:35:16.492Z</time></trkpt><trkpt lat="47.6907783" lon="3.8241633"><ele>255.0</ele><time>2026-04-06T08:35:17.482Z</time></trkpt><trkpt lat="47.6907167" lon="3.82438"><ele>254.0</ele><time>2026-04-06T08:35:18.488Z</time></trkpt><trkpt lat="47.6906483" lon="3.824615"><ele>253.0</ele><time>2026-04-06T08:35:19.478Z</time></trkpt><trkpt lat="47.690575" lon="3.8248583"><ele>252.0</ele><time>2026-04-06T08:35:20.485Z</time></trkpt><trkpt lat="47.6904967" lon="3.825105"><ele>251.66666666666669</ele><time>2026-04-06T08:35:21.474Z</time></trkpt><trkpt lat="47.690415" lon="3.8253633"><ele>251.33333333333334</ele><time>2026-04-06T08:35:22.481Z</time></trkpt><trkpt lat="47.69033" lon="3.825625"><ele>251.0</ele><time>2026-04-06T08:35:23.487Z</time></trkpt><trkpt lat="47.6902433" lon="3.8258833"><ele>250.0</ele><time>2026-04-06T08:35:24.477Z</time></trkpt><trkpt lat="47.69016" lon="3.8261433"><ele>249.0</ele><time>2026-04-06T08:35:25.484Z</time></trkpt><trkpt lat="47.6900783" lon="3.8264017"><ele>248.0</ele><time>2026-04-06T08:35:26.474Z</time></trkpt><trkpt lat="47.6899967" lon="3.8266617"><ele>247.33333333333334</ele><time>2026-04-06T08:35:27.497Z</time></trkpt><trkpt lat="47.6899183" lon="3.8269133"><ele>246.66666666666669</ele><time>2026-04-06T08:35:28.487Z</time></trkpt><trkpt lat="47.6898433" lon="3.8271567"><ele>246.0</ele><time>2026-04-06T08:35:29.494Z</time></trkpt><trkpt lat="47.68977" lon="3.8274"><ele>246.0</ele><time>2026-04-06T08:35:30.484Z</time></trkpt><trkpt lat="47.68971" lon="3.8276433"><ele>246.0</ele><time>2026-04-06T08:35:31.49Z</time></trkpt><trkpt lat="47.6896683" lon="3.82789"><ele>246.0</ele><time>2026-04-06T08:35:32.48Z</time></trkpt><trkpt lat="47.689655" lon="3.8281433"><ele>246.0</ele><time>2026-04-06T08:35:33.486Z</time></trkpt><trkpt lat="47.6896517" lon="3.8284033"><ele>246.0</ele><time>2026-04-06T08:35:34.494Z</time></trkpt><trkpt lat="47.689645" lon="3.828675"><ele>246.0</ele><time>2026-04-06T08:35:35.482Z</time></trkpt><trkpt lat="47.6896383" lon="3.8289533"><ele>246.0</ele><time>2026-04-06T08:35:36.49Z</time></trkpt><trkpt lat="47.6896333" lon="3.829235"><ele>246.0</ele><time>2026-04-06T08:35:37.48Z</time></trkpt><trkpt lat="47.68963" lon="3.829515"><ele>246.0</ele><time>2026-04-06T08:35:38.486Z</time></trkpt><trkpt lat="47.6896233" lon="3.829795"><ele>246.0</ele><time>2026-04-06T08:35:39.493Z</time></trkpt><trkpt lat="47.689615" lon="3.83007"><ele>246.0</ele><time>2026-04-06T08:35:40.483Z</time></trkpt><trkpt lat="47.6896083" lon="3.8303267"><ele>246.0</ele><time>2026-04-06T08:35:41.49Z</time></trkpt><trkpt lat="47.689605" lon="3.8305567"><ele>246.4</ele><time>2026-04-06T08:35:42.48Z</time></trkpt><trkpt lat="47.6896033" lon="3.8307567"><ele>246.8</ele><time>2026-04-06T08:35:43.486Z</time></trkpt><trkpt lat="47.6896017" lon="3.8309283"><ele>247.20000000000002</ele><time>2026-04-06T08:35:44.492Z</time></trkpt><trkpt lat="47.6896017" lon="3.8310733"><ele>247.60000000000002</ele><time>2026-04-06T08:35:45.483Z</time></trkpt><trkpt lat="47.6896" lon="3.8311983"><ele>248.0</ele><time>2026-04-06T08:35:46.489Z</time></trkpt><trkpt lat="47.6895967" lon="3.8313117"><ele>248.00000000000003</ele><time>2026-04-06T08:35:47.479Z</time></trkpt><trkpt lat="47.6896033" lon="3.8314117"><ele>248.0</ele><time>2026-04-06T08:35:48.486Z</time></trkpt><trkpt lat="47.6896717" lon="3.83154"><ele>248.0</ele><time>2026-04-06T08:35:50.482Z</time></trkpt><trkpt lat="47.6897333" lon="3.8315717"><ele>248.0</ele><time>2026-04-06T08:35:51.488Z</time></trkpt><trkpt lat="47.6897983" lon="3.8315733"><ele>248.00000000000003</ele><time>2026-04-06T08:35:52.479Z</time></trkpt><trkpt lat="47.68986" lon="3.8315133"><ele>248.0</ele><time>2026-04-06T08:35:54.475Z</time></trkpt><trkpt lat="47.68981" lon="3.8314183"><ele>248.00000000000003</ele><time>2026-04-06T08:35:56.489Z</time></trkpt><trkpt lat="47.6897517" lon="3.83136"><ele>248.0</ele><time>2026-04-06T08:35:57.478Z</time></trkpt><trkpt lat="47.6896917" lon="3.8312833"><ele>248.0</ele><time>2026-04-06T08:35:58.485Z</time></trkpt><trkpt lat="47.6896467" lon="3.8311883"><ele>248.0</ele><time>2026-04-06T08:35:59.474Z</time></trkpt><trkpt lat="47.6896067" lon="3.83107"><ele>248.00000000000003</ele><time>2026-04-06T08:36:00.482Z</time></trkpt><trkpt lat="47.689595" lon="3.8309233"><ele>248.0</ele><time>2026-04-06T08:36:01.488Z</time></trkpt><trkpt lat="47.6896017" lon="3.8307333"><ele>248.0</ele><time>2026-04-06T08:36:02.477Z</time></trkpt><trkpt lat="47.689605" lon="3.83052"><ele>248.0</ele><time>2026-04-06T08:36:03.485Z</time></trkpt><trkpt lat="47.6896083" lon="3.8302883"><ele>248.0</ele><time>2026-04-06T08:36:04.475Z</time></trkpt><trkpt lat="47.6896133" lon="3.8300383"><ele>247.33333333333334</ele><time>2026-04-06T08:36:05.481Z</time></trkpt><trkpt lat="47.68962" lon="3.8297717"><ele>246.66666666666669</ele><time>2026-04-06T08:36:06.488Z</time></trkpt><trkpt lat="47.6896283" lon="3.82949"><ele>246.0</ele><time>2026-04-06T08:36:07.494Z</time></trkpt><trkpt lat="47.6896317" lon="3.829195"><ele>246.0</ele><time>2026-04-06T08:36:08.484Z</time></trkpt><trkpt lat="47.6896383" lon="3.8288883"><ele>246.0</ele><time>2026-04-06T08:36:09.491Z</time></trkpt><trkpt lat="47.6896433" lon="3.828575"><ele>246.0</ele><time>2026-04-06T08:36:10.48Z</time></trkpt><trkpt lat="47.6896483" lon="3.8282683"><ele>246.0</ele><time>2026-04-06T08:36:11.487Z</time></trkpt><trkpt lat="47.6896617" lon="3.8279833"><ele>246.0</ele><time>2026-04-06T08:36:12.494Z</time></trkpt><trkpt lat="47.689695" lon="3.8277283"><ele>246.0</ele><time>2026-04-06T08:36:13.483Z</time></trkpt><trkpt lat="47.6897517" lon="3.827495"><ele>246.0</ele><time>2026-04-06T08:36:14.49Z</time></trkpt><trkpt lat="47.6898217" lon="3.8272567"><ele>246.0</ele><time>2026-04-06T08:36:15.48Z</time></trkpt><trkpt lat="47.689895" lon="3.8270133"><ele>246.0</ele><time>2026-04-06T08:36:16.487Z</time></trkpt><trkpt lat="47.6899733" lon="3.8267667"><ele>246.66666666666669</ele><time>2026-04-06T08:36:17.494Z</time></trkpt><trkpt lat="47.6900533" lon="3.8265117"><ele>247.33333333333334</ele><time>2026-04-06T08:36:18.483Z</time></trkpt><trkpt lat="47.690135" lon="3.826255"><ele>248.0</ele><time>2026-04-06T08:36:19.489Z</time></trkpt><trkpt lat="47.6902183" lon="3.8259983"><ele>249.0</ele><time>2026-04-06T08:36:20.48Z</time></trkpt><trkpt lat="47.6903" lon="3.8257333"><ele>250.0</ele><time>2026-04-06T08:36:21.487Z</time></trkpt><trkpt lat="47.6903817" lon="3.8254683"><ele>251.0</ele><time>2026-04-06T08:36:22.493Z</time></trkpt><trkpt lat="47.6904667" lon="3.825205"><ele>251.33333333333334</ele><time>2026-04-06T08:36:23.483Z</time></trkpt><trkpt lat="47.69055" lon="3.82493"><ele>251.66666666666669</ele><time>2026-04-06T08:36:24.49Z</time></trkpt><trkpt lat="47.6906317" lon="3.8246567"><ele>252.0</ele><time>2026-04-06T08:36:25.48Z</time></trkpt><trkpt lat="47.690715" lon="3.824375"><ele>253.0</ele><time>2026-04-06T08:36:26.485Z</time></trkpt><trkpt lat="47.6907983" lon="3.82409"><ele>254.0</ele><time>2026-04-06T08:36:27.476Z</time></trkpt><trkpt lat="47.690885" lon="3.8238033"><ele>255.0</ele><time>2026-04-06T08:36:28.483Z</time></trkpt><trkpt lat="47.6909683" lon="3.8235383"><ele>255.25</ele><time>2026-04-06T08:36:29.489Z</time></trkpt><trkpt lat="47.6910433" lon="3.8233"><ele>255.5</ele><time>2026-04-06T08:36:30.478Z</time></trkpt><trkpt lat="47.6911067" lon="3.8230933"><ele>255.75</ele><time>2026-04-06T08:36:31.486Z</time></trkpt><trkpt lat="47.691155" lon="3.8229317"><ele>256.0</ele><time>2026-04-06T08:36:32.476Z</time></trkpt><trkpt lat="47.69118" lon="3.8228183"><ele>256.2</ele><time>2026-04-06T08:36:33.482Z</time></trkpt><trkpt lat="47.6911817" lon="3.82269"><ele>256.40000000000003</ele><time>2026-04-06T08:36:35.478Z</time></trkpt><trkpt lat="47.6911133" lon="3.8226583"><ele>256.6</ele><time>2026-04-06T08:40:39.487Z</time></trkpt><trkpt lat="47.6910017" lon="3.82257"><ele>256.8</ele><time>2026-04-06T08:40:41.483Z</time></trkpt><trkpt lat="47.69092" lon="3.8225417"><ele>257.0</ele><time>2026-04-06T08:40:42.489Z</time></trkpt><trkpt lat="47.6908383" lon="3.82255"><ele>257.0</ele><time>2026-04-06T08:40:43.48Z</time></trkpt><trkpt lat="47.6907433" lon="3.8225683"><ele>257.0</ele><time>2026-04-06T08:40:44.486Z</time></trkpt><trkpt lat="47.6906467" lon="3.8225867"><ele>257.0</ele><time>2026-04-06T08:40:45.476Z</time></trkpt><trkpt lat="47.690545" lon="3.8226067"><ele>257.0</ele><time>2026-04-06T08:40:46.482Z</time></trkpt><trkpt lat="47.690445" lon="3.82263"><ele>257.0</ele><time>2026-04-06T08:40:47.489Z</time></trkpt><trkpt lat="47.6903433" lon="3.82265"><ele>256.0</ele><time>2026-04-06T08:40:48.479Z</time></trkpt><trkpt lat="47.690235" lon="3.8226733"><ele>255.0</ele><time>2026-04-06T08:40:49.486Z</time></trkpt><trkpt lat="47.6901167" lon="3.8226933"><ele>254.0</ele><time>2026-04-06T08:40:50.476Z</time></trkpt><trkpt lat="47.6899867" lon="3.82271"><ele>253.0</ele><time>2026-04-06T08:40:51.481Z</time></trkpt><trkpt lat="47.6898483" lon="3.8227217"><ele>253.0</ele><time>2026-04-06T08:40:52.489Z</time></trkpt><trkpt lat="47.6897083" lon="3.8227333"><ele>253.0</ele><time>2026-04-06T08:40:53.478Z</time></trkpt><trkpt lat="47.68956" lon="3.8227467"><ele>253.0</ele><time>2026-04-06T08:40:54.484Z</time></trkpt><trkpt lat="47.6894083" lon="3.8227567"><ele>253.0</ele><time>2026-04-06T08:40:55.475Z</time></trkpt><trkpt lat="47.6892533" lon="3.8227667"><ele>252.0</ele><time>2026-04-06T08:40:56.482Z</time></trkpt><trkpt lat="47.6890967" lon="3.8227783"><ele>251.0</ele><time>2026-04-06T08:40:57.489Z</time></trkpt><trkpt lat="47.6889367" lon="3.82279"><ele>250.0</ele><time>2026-04-06T08:40:58.478Z</time></trkpt><trkpt lat="47.6887717" lon="3.8228017"><ele>249.0</ele><time>2026-04-06T08:40:59.485Z</time></trkpt><trkpt lat="47.68843" lon="3.8228183"><ele>248.0</ele><time>2026-04-06T08:41:01.481Z</time></trkpt><trkpt lat="47.688255" lon="3.822825"><ele>248.0</ele><time>2026-04-06T08:41:02.487Z</time></trkpt><trkpt lat="47.688075" lon="3.822825"><ele>248.0</ele><time>2026-04-06T08:41:03.495Z</time></trkpt><trkpt lat="47.6878933" lon="3.8228267"><ele>248.0</ele><time>2026-04-06T08:41:04.485Z</time></trkpt><trkpt lat="47.687715" lon="3.82283"><ele>247.66666666666669</ele><time>2026-04-06T08:41:05.491Z</time></trkpt><trkpt lat="47.68754" lon="3.8228333"><ele>247.33333333333331</ele><time>2026-04-06T08:41:06.48Z</time></trkpt><trkpt lat="47.687365" lon="3.8228367"><ele>247.0</ele><time>2026-04-06T08:41:07.488Z</time></trkpt><trkpt lat="47.687195" lon="3.82284"><ele>247.0</ele><time>2026-04-06T08:41:08.494Z</time></trkpt><trkpt lat="47.6870333" lon="3.82284"><ele>247.0</ele><time>2026-04-06T08:41:09.484Z</time></trkpt><trkpt lat="47.6868733" lon="3.82284"><ele>247.0</ele><time>2026-04-06T08:41:10.491Z</time></trkpt><trkpt lat="47.68671" lon="3.822835"><ele>246.0</ele><time>2026-04-06T08:41:11.481Z</time></trkpt><trkpt lat="47.6865433" lon="3.8228167"><ele>245.0</ele><time>2026-04-06T08:41:12.487Z</time></trkpt><trkpt lat="47.6863683" lon="3.822795"><ele>244.0</ele><time>2026-04-06T08:41:13.494Z</time></trkpt><trkpt lat="47.68619" lon="3.8227717"><ele>243.66666666666666</ele><time>2026-04-06T08:41:14.484Z</time></trkpt><trkpt lat="47.68601" lon="3.8227517"><ele>243.33333333333331</ele><time>2026-04-06T08:41:15.491Z</time></trkpt><trkpt lat="47.6858233" lon="3.8227333"><ele>243.0</ele><time>2026-04-06T08:41:16.48Z</time></trkpt><trkpt lat="47.68563" lon="3.8227117"><ele>243.0</ele><time>2026-04-06T08:41:17.486Z</time></trkpt><trkpt lat="47.68543" lon="3.8226933"><ele>243.0</ele><time>2026-04-06T08:41:18.476Z</time></trkpt><trkpt lat="47.685225" lon="3.822675"><ele>243.0</ele><time>2026-04-06T08:41:19.484Z</time></trkpt><trkpt lat="47.685015" lon="3.8226517"><ele>242.0</ele><time>2026-04-06T08:41:20.49Z</time></trkpt><trkpt lat="47.6848" lon="3.8226267"><ele>241.0</ele><time>2026-04-06T08:41:21.479Z</time></trkpt><trkpt lat="47.6845883" lon="3.8226033"><ele>240.0</ele><time>2026-04-06T08:41:22.486Z</time></trkpt><trkpt lat="47.68438" lon="3.82258"><ele>240.0</ele><time>2026-04-06T08:41:23.476Z</time></trkpt><trkpt lat="47.68418" lon="3.82256"><ele>240.0</ele><time>2026-04-06T08:41:24.483Z</time></trkpt><trkpt lat="47.683995" lon="3.82254"><ele>240.0</ele><time>2026-04-06T08:41:25.49Z</time></trkpt><trkpt lat="47.683825" lon="3.8225233"><ele>240.0</ele><time>2026-04-06T08:41:26.48Z</time></trkpt><trkpt lat="47.683665" lon="3.8225083"><ele>240.0</ele><time>2026-04-06T08:41:27.485Z</time></trkpt><trkpt lat="47.68351" lon="3.822495"><ele>240.0</ele><time>2026-04-06T08:41:28.476Z</time></trkpt><trkpt lat="47.6833567" lon="3.822485"><ele>239.66666666666669</ele><time>2026-04-06T08:41:29.482Z</time></trkpt><trkpt lat="47.683195" lon="3.822475"><ele>239.33333333333334</ele><time>2026-04-06T08:41:30.489Z</time></trkpt><trkpt lat="47.6830217" lon="3.822465"><ele>239.0</ele><time>2026-04-06T08:41:31.479Z</time></trkpt><trkpt lat="47.68284" lon="3.8224583"><ele>238.0</ele><time>2026-04-06T08:41:32.485Z</time></trkpt><trkpt lat="47.6826517" lon="3.8224583"><ele>237.0</ele><time>2026-04-06T08:41:33.476Z</time></trkpt><trkpt lat="47.6824567" lon="3.8224633"><ele>236.0</ele><time>2026-04-06T08:41:34.481Z</time></trkpt><trkpt lat="47.6822583" lon="3.8224717"><ele>236.0</ele><time>2026-04-06T08:41:35.488Z</time></trkpt><trkpt lat="47.6820517" lon="3.8224833"><ele>236.0</ele><time>2026-04-06T08:41:36.495Z</time></trkpt><trkpt lat="47.6818433" lon="3.8224917"><ele>236.0</ele><time>2026-04-06T08:41:37.485Z</time></trkpt><trkpt lat="47.6816317" lon="3.8224967"><ele>236.0</ele><time>2026-04-06T08:41:38.492Z</time></trkpt><trkpt lat="47.6814183" lon="3.8224933"><ele>236.0</ele><time>2026-04-06T08:41:39.482Z</time></trkpt><trkpt lat="47.6812117" lon="3.82248"><ele>236.0</ele><time>2026-04-06T08:41:40.489Z</time></trkpt><trkpt lat="47.681015" lon="3.8224633"><ele>236.33333333333334</ele><time>2026-04-06T08:41:41.495Z</time></trkpt><trkpt lat="47.6808217" lon="3.822445"><ele>236.66666666666669</ele><time>2026-04-06T08:41:42.485Z</time></trkpt><trkpt lat="47.6806317" lon="3.822425"><ele>237.0</ele><time>2026-04-06T08:41:43.492Z</time></trkpt><trkpt lat="47.6804383" lon="3.8223983"><ele>237.33333333333331</ele><time>2026-04-06T08:41:44.482Z</time></trkpt><trkpt lat="47.6802417" lon="3.8223617"><ele>237.66666666666666</ele><time>2026-04-06T08:41:45.487Z</time></trkpt><trkpt lat="47.6800433" lon="3.822315"><ele>238.0</ele><time>2026-04-06T08:41:46.495Z</time></trkpt><trkpt lat="47.6798417" lon="3.822265"><ele>238.0</ele><time>2026-04-06T08:41:47.484Z</time></trkpt><trkpt lat="47.6796483" lon="3.8222067"><ele>238.0</ele><time>2026-04-06T08:41:48.491Z</time></trkpt><trkpt lat="47.6794583" lon="3.8221483"><ele>238.0</ele><time>2026-04-06T08:41:49.481Z</time></trkpt><trkpt lat="47.6792683" lon="3.82209"><ele>238.0</ele><time>2026-04-06T08:41:50.488Z</time></trkpt><trkpt lat="47.67908" lon="3.822035"><ele>238.0</ele><time>2026-04-06T08:41:51.477Z</time></trkpt><trkpt lat="47.678895" lon="3.82199"><ele>238.0</ele><time>2026-04-06T08:41:52.484Z</time></trkpt><trkpt lat="47.6787167" lon="3.8219533"><ele>238.66666666666666</ele><time>2026-04-06T08:41:53.491Z</time></trkpt><trkpt lat="47.67854" lon="3.82193"><ele>239.33333333333331</ele><time>2026-04-06T08:41:54.481Z</time></trkpt><trkpt lat="47.678365" lon="3.8219183"><ele>240.0</ele><time>2026-04-06T08:41:55.486Z</time></trkpt><trkpt lat="47.67819" lon="3.8219067"><ele>240.0</ele><time>2026-04-06T08:41:56.477Z</time></trkpt><trkpt lat="47.6780117" lon="3.8219"><ele>240.0</ele><time>2026-04-06T08:41:57.483Z</time></trkpt><trkpt lat="47.6778267" lon="3.8219"><ele>240.0</ele><time>2026-04-06T08:41:58.49Z</time></trkpt><trkpt lat="47.6776383" lon="3.8218983"><ele>239.33333333333331</ele><time>2026-04-06T08:41:59.48Z</time></trkpt><trkpt lat="47.6774467" lon="3.8218967"><ele>238.66666666666666</ele><time>2026-04-06T08:42:00.487Z</time></trkpt><trkpt lat="47.677255" lon="3.8218867"><ele>238.0</ele><time>2026-04-06T08:42:01.476Z</time></trkpt><trkpt lat="47.67707" lon="3.8218733"><ele>237.33333333333331</ele><time>2026-04-06T08:42:02.484Z</time></trkpt><trkpt lat="47.6768917" lon="3.82186"><ele>236.66666666666669</ele><time>2026-04-06T08:42:03.49Z</time></trkpt><trkpt lat="47.6767233" lon="3.8218467"><ele>236.0</ele><time>2026-04-06T08:42:04.48Z</time></trkpt><trkpt lat="47.67657" lon="3.8218383"><ele>236.0</ele><time>2026-04-06T08:42:05.487Z</time></trkpt><trkpt lat="47.6764217" lon="3.8218367"><ele>236.0</ele><time>2026-04-06T08:42:06.475Z</time></trkpt><trkpt lat="47.6762733" lon="3.82185"><ele>236.0</ele><time>2026-04-06T08:42:07.482Z</time></trkpt><trkpt lat="47.6761167" lon="3.8218767"><ele>235.66666666666669</ele><time>2026-04-06T08:42:08.49Z</time></trkpt><trkpt lat="47.67595" lon="3.821915"><ele>235.33333333333331</ele><time>2026-04-06T08:42:09.48Z</time></trkpt><trkpt lat="47.675775" lon="3.821965"><ele>235.0</ele><time>2026-04-06T08:42:10.486Z</time></trkpt><trkpt lat="47.6755967" lon="3.82202"><ele>235.0</ele><time>2026-04-06T08:42:11.475Z</time></trkpt><trkpt lat="47.6754217" lon="3.82208"><ele>235.0</ele><time>2026-04-06T08:42:12.482Z</time></trkpt><trkpt lat="47.6752517" lon="3.8221367"><ele>235.0</ele><time>2026-04-06T08:42:13.472Z</time></trkpt><trkpt lat="47.6750833" lon="3.8221833"><ele>234.0</ele><time>2026-04-06T08:42:14.496Z</time></trkpt><trkpt lat="47.6749167" lon="3.8222267"><ele>233.0</ele><time>2026-04-06T08:42:15.486Z</time></trkpt><trkpt lat="47.6747567" lon="3.822275"><ele>232.0</ele><time>2026-04-06T08:42:16.491Z</time></trkpt><trkpt lat="47.6745983" lon="3.8223183"><ele>232.0</ele><time>2026-04-06T08:42:17.481Z</time></trkpt><trkpt lat="47.6744433" lon="3.822355"><ele>232.0</ele><time>2026-04-06T08:42:18.489Z</time></trkpt><trkpt lat="47.6742867" lon="3.8223933"><ele>232.0</ele><time>2026-04-06T08:42:19.496Z</time></trkpt><trkpt lat="47.6741233" lon="3.8224233"><ele>230.66666666666666</ele><time>2026-04-06T08:42:20.485Z</time></trkpt><trkpt lat="47.6739583" lon="3.82245"><ele>229.33333333333331</ele><time>2026-04-06T08:42:21.492Z</time></trkpt><trkpt lat="47.6737967" lon="3.822475"><ele>228.0</ele><time>2026-04-06T08:42:22.482Z</time></trkpt><trkpt lat="47.67365" lon="3.8224983"><ele>227.25</ele><time>2026-04-06T08:42:23.488Z</time></trkpt><trkpt lat="47.6735117" lon="3.8225117"><ele>226.5</ele><time>2026-04-06T08:42:24.478Z</time></trkpt><trkpt lat="47.6733883" lon="3.8225183"><ele>225.75</ele><time>2026-04-06T08:42:25.485Z</time></trkpt><trkpt lat="47.6732733" lon="3.822515"><ele>225.0</ele><time>2026-04-06T08:42:26.492Z</time></trkpt><trkpt lat="47.673175" lon="3.8225067"><ele>225.0</ele><time>2026-04-06T08:42:27.482Z</time></trkpt><trkpt lat="47.673105" lon="3.8225033"><ele>225.0</ele><time>2026-04-06T08:42:28.488Z</time></trkpt><trkpt lat="47.67303" lon="3.822565"><ele>225.0</ele><time>2026-04-06T08:42:32.48Z</time></trkpt><trkpt lat="47.6729933" lon="3.8226917"><ele>225.0</ele><time>2026-04-06T08:42:34.478Z</time></trkpt><trkpt lat="47.672965" lon="3.8227867"><ele>225.0</ele><time>2026-04-06T08:42:35.484Z</time></trkpt><trkpt lat="47.6729283" lon="3.822905"><ele>225.0</ele><time>2026-04-06T08:42:36.491Z</time></trkpt><trkpt lat="47.6728767" lon="3.8230517"><ele>225.25</ele><time>2026-04-06T08:42:37.481Z</time></trkpt><trkpt lat="47.6728183" lon="3.82322"><ele>225.5</ele><time>2026-04-06T08:42:38.487Z</time></trkpt><trkpt lat="47.6727617" lon="3.8233867"><ele>225.75</ele><time>2026-04-06T08:42:39.477Z</time></trkpt><trkpt lat="47.6727167" lon="3.8235433"><ele>226.0</ele><time>2026-04-06T08:42:40.484Z</time></trkpt><trkpt lat="47.6726767" lon="3.823675"><ele>226.20000000000002</ele><time>2026-04-06T08:42:41.491Z</time></trkpt><trkpt lat="47.6726383" lon="3.8237833"><ele>226.40000000000003</ele><time>2026-04-06T08:42:42.48Z</time></trkpt><trkpt lat="47.67261" lon="3.8238767"><ele>226.6</ele><time>2026-04-06T08:42:43.487Z</time></trkpt><trkpt lat="47.672575" lon="3.82405"><ele>226.8</ele><time>2026-04-06T08:42:45.484Z</time></trkpt><trkpt lat="47.6725617" lon="3.824195"><ele>227.0</ele><time>2026-04-06T08:42:47.479Z</time></trkpt><trkpt lat="47.67259" lon="3.82433"><ele>227.00000000000003</ele><time>2026-04-06T08:42:49.475Z</time></trkpt><trkpt lat="47.6726383" lon="3.82441"><ele>227.0</ele><time>2026-04-06T08:42:51.473Z</time></trkpt><trkpt lat="47.6727167" lon="3.8244767"><ele>227.0</ele><time>2026-04-06T08:42:53.486Z</time></trkpt><trkpt lat="47.672835" lon="3.82455"><ele>227.0</ele><time>2026-04-06T08:42:55.482Z</time></trkpt><trkpt lat="47.6729" lon="3.8245917"><ele>227.00000000000003</ele><time>2026-04-06T08:42:56.488Z</time></trkpt><trkpt lat="47.67297" lon="3.8246417"><ele>227.0</ele><time>2026-04-06T08:42:57.479Z</time></trkpt><trkpt lat="47.6730383" lon="3.8246933"><ele>227.50000000000003</ele><time>2026-04-06T08:42:58.486Z</time></trkpt><trkpt lat="47.6731067" lon="3.824745"><ele>228.0</ele><time>2026-04-06T08:42:59.492Z</time></trkpt><trkpt lat="47.6731717" lon="3.8247917"><ele>228.5</ele><time>2026-04-06T08:43:00.482Z</time></trkpt><trkpt lat="47.6732333" lon="3.8248283"><ele>229.0</ele><time>2026-04-06T08:43:01.489Z</time></trkpt><trkpt lat="47.673295" lon="3.8248583"><ele>229.50000000000003</ele><time>2026-04-06T08:43:02.479Z</time></trkpt><trkpt lat="47.6733567" lon="3.824885"><ele>230.0</ele><time>2026-04-06T08:43:03.485Z</time></trkpt><trkpt lat="47.6734733" lon="3.8249217"><ele>230.00000000000003</ele><time>2026-04-06T08:43:05.482Z</time></trkpt><trkpt lat="47.673575" lon="3.824945"><ele>230.0</ele><time>2026-04-06T08:43:07.478Z</time></trkpt><trkpt lat="47.67365" lon="3.824965"><ele>230.0</ele><time>2026-04-06T08:43:09.492Z</time></trkpt><trkpt lat="47.6737217" lon="3.8250167"><ele>230.0</ele><time>2026-04-06T08:43:11.487Z</time></trkpt><trkpt lat="47.6738033" lon="3.8250867"><ele>230.00000000000003</ele><time>2026-04-06T08:43:13.485Z</time></trkpt><trkpt lat="47.6738817" lon="3.8251667"><ele>230.0</ele><time>2026-04-06T08:43:15.48Z</time></trkpt><trkpt lat="47.6739567" lon="3.825245"><ele>230.00000000000003</ele><time>2026-04-06T08:43:17.478Z</time></trkpt><trkpt lat="47.67404" lon="3.825305"><ele>230.0</ele><time>2026-04-06T08:43:19.491Z</time></trkpt><trkpt lat="47.6741283" lon="3.8253567"><ele>230.0</ele><time>2026-04-06T08:43:21.487Z</time></trkpt><trkpt lat="47.6742" lon="3.825395"><ele>230.0</ele><time>2026-04-06T08:43:23.484Z</time></trkpt><trkpt lat="47.6742733" lon="3.8253733"><ele>230.00000000000003</ele><time>2026-04-06T08:43:25.496Z</time></trkpt><trkpt lat="47.6743283" lon="3.8253133"><ele>230.0</ele><time>2026-04-06T08:43:27.493Z</time></trkpt><trkpt lat="47.6743767" lon="3.82525"><ele>230.50000000000003</ele><time>2026-04-06T08:43:29.473Z</time></trkpt><trkpt lat="47.674465" lon="3.8252383"><ele>231.0</ele><time>2026-04-06T08:43:39.489Z</time></trkpt><trkpt lat="47.674525" lon="3.8253133"><ele>231.5</ele><time>2026-04-06T08:43:41.486Z</time></trkpt><trkpt lat="47.6745867" lon="3.8254117"><ele>232.0</ele><time>2026-04-06T08:43:43.482Z</time></trkpt><trkpt lat="47.674635" lon="3.8254933"><ele>232.50000000000003</ele><time>2026-04-06T08:43:45.479Z</time></trkpt><trkpt lat="47.6747" lon="3.8255817"><ele>233.0</ele><time>2026-04-06T08:43:48.482Z</time></trkpt><trkpt lat="47.6747567" lon="3.8256567"><ele>233.00000000000003</ele><time>2026-04-06T08:43:50.478Z</time></trkpt><trkpt lat="47.6748233" lon="3.8257133"><ele>233.0</ele><time>2026-04-06T08:43:53.481Z</time></trkpt><trkpt lat="47.6747383" lon="3.8256433"><ele>233.0</ele><time>2026-04-06T08:44:21.482Z</time></trkpt><trkpt lat="47.6746883" lon="3.8255683"><ele>233.0</ele><time>2026-04-06T08:44:23.478Z</time></trkpt><trkpt lat="47.674635" lon="3.8254867"><ele>233.00000000000003</ele><time>2026-04-06T08:44:25.492Z</time></trkpt><trkpt lat="47.6745717" lon="3.8253717"><ele>233.0</ele><time>2026-04-06T08:44:27.488Z</time></trkpt><trkpt lat="47.674505" lon="3.8252767"><ele>232.50000000000003</ele><time>2026-04-06T08:44:29.485Z</time></trkpt><trkpt lat="47.67442" lon="3.8252533"><ele>232.0</ele><time>2026-04-06T08:44:32.489Z</time></trkpt><trkpt lat="47.6743583" lon="3.8253133"><ele>231.5</ele><time>2026-04-06T08:44:34.484Z</time></trkpt><trkpt lat="47.6742867" lon="3.825385"><ele>231.0</ele><time>2026-04-06T08:44:36.482Z</time></trkpt><trkpt lat="47.6742133" lon="3.8253933"><ele>230.50000000000003</ele><time>2026-04-06T08:44:38.478Z</time></trkpt><trkpt lat="47.6741467" lon="3.82538"><ele>230.0</ele><time>2026-04-06T08:44:40.475Z</time></trkpt><trkpt lat="47.67408" lon="3.82533"><ele>230.0</ele><time>2026-04-06T08:44:42.487Z</time></trkpt><trkpt lat="47.6740033" lon="3.82526"><ele>230.0</ele><time>2026-04-06T08:44:44.483Z</time></trkpt><trkpt lat="47.67392" lon="3.8251833"><ele>230.0</ele><time>2026-04-06T08:44:46.481Z</time></trkpt><trkpt lat="47.6738267" lon="3.8250967"><ele>230.0</ele><time>2026-04-06T08:44:48.494Z</time></trkpt><trkpt lat="47.6737333" lon="3.8250233"><ele>230.0</ele><time>2026-04-06T08:44:50.49Z</time></trkpt><trkpt lat="47.673635" lon="3.8249767"><ele>230.0</ele><time>2026-04-06T08:44:52.487Z</time></trkpt><trkpt lat="47.6735" lon="3.824935"><ele>230.0</ele><time>2026-04-06T08:44:54.484Z</time></trkpt><trkpt lat="47.6734217" lon="3.82491"><ele>230.0</ele><time>2026-04-06T08:44:55.49Z</time></trkpt><trkpt lat="47.6733433" lon="3.8248833"><ele>230.0</ele><time>2026-04-06T08:44:56.479Z</time></trkpt><trkpt lat="47.6732667" lon="3.8248467"><ele>230.0</ele><time>2026-04-06T08:44:57.487Z</time></trkpt><trkpt lat="47.6731917" lon="3.8247883"><ele>230.00000000000003</ele><time>2026-04-06T08:44:58.493Z</time></trkpt><trkpt lat="47.673115" lon="3.824725"><ele>230.0</ele><time>2026-04-06T08:44:59.483Z</time></trkpt><trkpt lat="47.67304" lon="3.824665"><ele>230.0</ele><time>2026-04-06T08:45:00.49Z</time></trkpt><trkpt lat="47.6729633" lon="3.8246133"><ele>230.0</ele><time>2026-04-06T08:45:01.48Z</time></trkpt><trkpt lat="47.6728933" lon="3.824565"><ele>230.00000000000003</ele><time>2026-04-06T08:45:02.486Z</time></trkpt><trkpt lat="47.6728233" lon="3.8245233"><ele>230.0</ele><time>2026-04-06T08:45:03.475Z</time></trkpt><trkpt lat="47.6727183" lon="3.82445"><ele>229.50000000000003</ele><time>2026-04-06T08:45:05.489Z</time></trkpt><trkpt lat="47.6726483" lon="3.8243917"><ele>229.0</ele><time>2026-04-06T08:45:07.486Z</time></trkpt><trkpt lat="47.67258" lon="3.8244367"><ele>228.5</ele><time>2026-04-06T08:45:10.489Z</time></trkpt><trkpt lat="47.6725217" lon="3.8245167"><ele>228.0</ele><time>2026-04-06T08:45:12.485Z</time></trkpt><trkpt lat="47.6724633" lon="3.824605"><ele>227.50000000000003</ele><time>2026-04-06T08:45:14.482Z</time></trkpt><trkpt lat="47.6724233" lon="3.8247233"><ele>227.0</ele><time>2026-04-06T08:45:16.494Z</time></trkpt><trkpt lat="47.672375" lon="3.8248717"><ele>227.00000000000003</ele><time>2026-04-06T08:45:18.475Z</time></trkpt><trkpt lat="47.672305" lon="3.8250167"><ele>227.0</ele><time>2026-04-06T08:45:20.488Z</time></trkpt><trkpt lat="47.6722367" lon="3.8251433"><ele>227.0</ele><time>2026-04-06T08:45:22.485Z</time></trkpt><trkpt lat="47.6721883" lon="3.8252117"><ele>227.0</ele><time>2026-04-06T08:45:24.48Z</time></trkpt><trkpt lat="47.6721217" lon="3.8252583"><ele>227.00000000000003</ele><time>2026-04-06T08:45:27.484Z</time></trkpt><trkpt lat="47.6721133" lon="3.825155"><ele>227.0</ele><time>2026-04-06T08:45:31.494Z</time></trkpt><trkpt lat="47.6721817" lon="3.8251717"><ele>227.0</ele><time>2026-04-06T08:45:35.487Z</time></trkpt><trkpt lat="47.6722567" lon="3.8250983"><ele>227.0</ele><time>2026-04-06T08:45:38.49Z</time></trkpt><trkpt lat="47.6723083" lon="3.8250017"><ele>227.0</ele><time>2026-04-06T08:45:40.487Z</time></trkpt><trkpt lat="47.672365" lon="3.824885"><ele>227.0</ele><time>2026-04-06T08:45:42.483Z</time></trkpt><trkpt lat="47.6724233" lon="3.824735"><ele>227.0</ele><time>2026-04-06T08:45:44.48Z</time></trkpt><trkpt lat="47.6724533" lon="3.8246033"><ele>227.0</ele><time>2026-04-06T08:45:46.476Z</time></trkpt><trkpt lat="47.6724233" lon="3.82449"><ele>227.0</ele><time>2026-04-06T08:45:48.489Z</time></trkpt><trkpt lat="47.6723333" lon="3.824415"><ele>227.0</ele><time>2026-04-06T08:45:50.486Z</time></trkpt><trkpt lat="47.6722" lon="3.8243867"><ele>227.0</ele><time>2026-04-06T08:45:52.482Z</time></trkpt><trkpt lat="47.6721217" lon="3.82438"><ele>227.0</ele><time>2026-04-06T08:45:53.489Z</time></trkpt><trkpt lat="47.6720417" lon="3.8243783"><ele>227.00000000000003</ele><time>2026-04-06T08:45:54.495Z</time></trkpt><trkpt lat="47.67196" lon="3.8243583"><ele>227.0</ele><time>2026-04-06T08:45:55.484Z</time></trkpt><trkpt lat="47.6718833" lon="3.8243133"><ele>227.0</ele><time>2026-04-06T08:45:56.492Z</time></trkpt><trkpt lat="47.6718067" lon="3.8242567"><ele>227.0</ele><time>2026-04-06T08:45:57.482Z</time></trkpt><trkpt lat="47.6717283" lon="3.8241967"><ele>227.00000000000003</ele><time>2026-04-06T08:45:58.489Z</time></trkpt><trkpt lat="47.6716517" lon="3.8241333"><ele>227.0</ele><time>2026-04-06T08:45:59.495Z</time></trkpt><trkpt lat="47.6715817" lon="3.8240783"><ele>226.83333333333334</ele><time>2026-04-06T08:46:00.485Z</time></trkpt><trkpt lat="47.6715167" lon="3.8240283"><ele>226.66666666666669</ele><time>2026-04-06T08:46:01.491Z</time></trkpt><trkpt lat="47.6714517" lon="3.82398"><ele>226.5</ele><time>2026-04-06T08:46:02.482Z</time></trkpt><trkpt lat="47.6713917" lon="3.8239367"><ele>226.33333333333331</ele><time>2026-04-06T08:46:03.488Z</time></trkpt><trkpt lat="47.6712933" lon="3.823865"><ele>226.16666666666666</ele><time>2026-04-06T08:46:05.485Z</time></trkpt><trkpt lat="47.67122" lon="3.8237983"><ele>226.0</ele><time>2026-04-06T08:46:07.481Z</time></trkpt><trkpt lat="47.6712033" lon="3.8236567"><ele>225.99999999999997</ele><time>2026-04-06T08:46:10.483Z</time></trkpt><trkpt lat="47.6712052" lon="3.8235503"><ele>226.0</ele><time>2026-04-06T08:46:12.757Z</time></trkpt><trkpt lat="47.6711811" lon="3.8233412"><ele>226.0</ele><time>2026-04-06T08:46:15.483Z</time></trkpt><trkpt lat="47.6711737" lon="3.8232253"><ele>226.0</ele><time>2026-04-06T08:46:16.49Z</time></trkpt><trkpt lat="47.6711682" lon="3.8231172"><ele>225.99999999999997</ele><time>2026-04-06T08:46:17.48Z</time></trkpt><trkpt lat="47.6711629" lon="3.823008"><ele>226.0</ele><time>2026-04-06T08:46:18.487Z</time></trkpt><trkpt lat="47.6711559" lon="3.8229129"><ele>225.83333333333331</ele><time>2026-04-06T08:46:19.476Z</time></trkpt><trkpt lat="47.6711411" lon="3.8227928"><ele>225.66666666666666</ele><time>2026-04-06T08:46:21.49Z</time></trkpt><trkpt lat="47.6711327" lon="3.8226751"><ele>225.5</ele><time>2026-04-06T08:46:25.483Z</time></trkpt><trkpt lat="47.6711033" lon="3.8225817"><ele>225.33333333333331</ele><time>2026-04-06T08:46:30.483Z</time></trkpt><trkpt lat="47.6711233" lon="3.8227233"><ele>225.16666666666666</ele><time>2026-04-06T08:46:38.484Z</time></trkpt><trkpt lat="47.6711433" lon="3.8228983"><ele>225.0</ele><time>2026-04-06T08:46:40.481Z</time></trkpt><trkpt lat="47.67115" lon="3.8230017"><ele>225.0</ele><time>2026-04-06T08:46:41.489Z</time></trkpt><trkpt lat="47.6711583" lon="3.82312"><ele>225.0</ele><time>2026-04-06T08:46:42.478Z</time></trkpt><trkpt lat="47.6711633" lon="3.8232467"><ele>225.0</ele><time>2026-04-06T08:46:43.485Z</time></trkpt><trkpt lat="47.6711717" lon="3.8233817"><ele>225.0</ele><time>2026-04-06T08:46:44.492Z</time></trkpt><trkpt lat="47.6711833" lon="3.8235017"><ele>225.0</ele><time>2026-04-06T08:46:45.481Z</time></trkpt><trkpt lat="47.6711917" lon="3.8236083"><ele>225.0</ele><time>2026-04-06T08:46:46.488Z</time></trkpt><trkpt lat="47.6712133" lon="3.8237483"><ele>225.2</ele><time>2026-04-06T08:46:48.485Z</time></trkpt><trkpt lat="47.671305" lon="3.8238567"><ele>225.4</ele><time>2026-04-06T08:46:50.48Z</time></trkpt><trkpt lat="47.6713767" lon="3.8239167"><ele>225.60000000000002</ele><time>2026-04-06T08:46:51.488Z</time></trkpt><trkpt lat="47.67147" lon="3.8239867"><ele>225.8</ele><time>2026-04-06T08:46:52.478Z</time></trkpt><trkpt lat="47.67157" lon="3.8240683"><ele>226.0</ele><time>2026-04-06T08:46:53.484Z</time></trkpt><trkpt lat="47.6716733" lon="3.8241433"><ele>226.0</ele><time>2026-04-06T08:46:54.491Z</time></trkpt><trkpt lat="47.6717683" lon="3.8242083"><ele>226.00000000000003</ele><time>2026-04-06T08:46:55.481Z</time></trkpt><trkpt lat="47.6718633" lon="3.8242717"><ele>226.00000000000003</ele><time>2026-04-06T08:46:56.487Z</time></trkpt><trkpt lat="47.6719533" lon="3.8243183"><ele>226.0</ele><time>2026-04-06T08:46:57.477Z</time></trkpt><trkpt lat="47.672045" lon="3.82435"><ele>226.0</ele><time>2026-04-06T08:46:58.484Z</time></trkpt><trkpt lat="47.6721383" lon="3.8243817"><ele>226.16666666666666</ele><time>2026-04-06T08:46:59.491Z</time></trkpt><trkpt lat="47.67223" lon="3.824415"><ele>226.33333333333331</ele><time>2026-04-06T08:47:00.479Z</time></trkpt><trkpt lat="47.6723067" lon="3.8244433"><ele>226.5</ele><time>2026-04-06T08:47:01.487Z</time></trkpt><trkpt lat="47.67237" lon="3.824465"><ele>226.66666666666669</ele><time>2026-04-06T08:47:02.476Z</time></trkpt><trkpt lat="47.6724567" lon="3.8244733"><ele>226.83333333333334</ele><time>2026-04-06T08:47:04.473Z</time></trkpt><trkpt lat="47.672525" lon="3.8244267"><ele>227.0</ele><time>2026-04-06T08:47:06.487Z</time></trkpt><trkpt lat="47.6725783" lon="3.8243283"><ele>227.0</ele><time>2026-04-06T08:47:08.483Z</time></trkpt><trkpt lat="47.6725783" lon="3.824165"><ele>227.0</ele><time>2026-04-06T08:47:10.496Z</time></trkpt><trkpt lat="47.6725967" lon="3.8239683"><ele>227.0</ele><time>2026-04-06T08:47:12.493Z</time></trkpt><trkpt lat="47.6726267" lon="3.8238483"><ele>227.0</ele><time>2026-04-06T08:47:13.483Z</time></trkpt><trkpt lat="47.6726633" lon="3.823725"><ele>227.0</ele><time>2026-04-06T08:47:14.489Z</time></trkpt><trkpt lat="47.6727033" lon="3.8236083"><ele>227.00000000000003</ele><time>2026-04-06T08:47:15.479Z</time></trkpt><trkpt lat="47.6727417" lon="3.8235"><ele>227.0</ele><time>2026-04-06T08:47:16.486Z</time></trkpt><trkpt lat="47.67278" lon="3.8233883"><ele>227.0</ele><time>2026-04-06T08:47:17.493Z</time></trkpt><trkpt lat="47.6728183" lon="3.8232783"><ele>227.0</ele><time>2026-04-06T08:47:18.481Z</time></trkpt><trkpt lat="47.6728567" lon="3.82318"><ele>227.00000000000003</ele><time>2026-04-06T08:47:19.489Z</time></trkpt><trkpt lat="47.6728933" lon="3.8230917"><ele>227.0</ele><time>2026-04-06T08:47:20.479Z</time></trkpt><trkpt lat="47.6729233" lon="3.8230067"><ele>226.83333333333334</ele><time>2026-04-06T08:47:21.485Z</time></trkpt><trkpt lat="47.6729767" lon="3.8228467"><ele>226.66666666666669</ele><time>2026-04-06T08:47:23.482Z</time></trkpt><trkpt lat="47.6730133" lon="3.822735"><ele>226.5</ele><time>2026-04-06T08:47:25.478Z</time></trkpt><trkpt lat="47.67304" lon="3.8226467"><ele>226.33333333333331</ele><time>2026-04-06T08:47:27.492Z</time></trkpt><trkpt lat="47.67305" lon="3.8225117"><ele>226.16666666666666</ele><time>2026-04-06T08:47:41.483Z</time></trkpt><trkpt lat="47.672975" lon="3.8224517"><ele>226.0</ele><time>2026-04-06T08:47:43.497Z</time></trkpt><trkpt lat="47.6729083" lon="3.822425"><ele>225.8</ele><time>2026-04-06T08:47:44.487Z</time></trkpt><trkpt lat="47.6728267" lon="3.822385"><ele>225.60000000000002</ele><time>2026-04-06T08:47:45.494Z</time></trkpt><trkpt lat="47.67273" lon="3.8223233"><ele>225.4</ele><time>2026-04-06T08:47:46.484Z</time></trkpt><trkpt lat="47.67263" lon="3.8222417"><ele>225.2</ele><time>2026-04-06T08:47:47.49Z</time></trkpt><trkpt lat="47.672525" lon="3.8221333"><ele>225.0</ele><time>2026-04-06T08:47:48.479Z</time></trkpt><trkpt lat="47.6724133" lon="3.8220067"><ele>223.66666666666669</ele><time>2026-04-06T08:47:49.487Z</time></trkpt><trkpt lat="47.67229" lon="3.82187"><ele>222.33333333333334</ele><time>2026-04-06T08:47:50.493Z</time></trkpt><trkpt lat="47.6721683" lon="3.821725"><ele>221.0</ele><time>2026-04-06T08:47:51.482Z</time></trkpt><trkpt lat="47.672045" lon="3.8215783"><ele>219.33333333333334</ele><time>2026-04-06T08:47:52.49Z</time></trkpt><trkpt lat="47.671925" lon="3.821435"><ele>217.66666666666669</ele><time>2026-04-06T08:47:53.48Z</time></trkpt><trkpt lat="47.67181" lon="3.8212933"><ele>216.0</ele><time>2026-04-06T08:47:54.485Z</time></trkpt><trkpt lat="47.6716967" lon="3.8211517"><ele>216.0</ele><time>2026-04-06T08:47:55.492Z</time></trkpt><trkpt lat="47.67158" lon="3.8210167"><ele>216.0</ele><time>2026-04-06T08:47:56.483Z</time></trkpt><trkpt lat="47.6714567" lon="3.8209033"><ele>216.0</ele><time>2026-04-06T08:47:57.489Z</time></trkpt><trkpt lat="47.671325" lon="3.8208167"><ele>216.0</ele><time>2026-04-06T08:47:58.479Z</time></trkpt><trkpt lat="47.6711867" lon="3.82075"><ele>212.66666666666669</ele><time>2026-04-06T08:47:59.486Z</time></trkpt><trkpt lat="47.671045" lon="3.8206933"><ele>209.33333333333334</ele><time>2026-04-06T08:48:00.492Z</time></trkpt><trkpt lat="47.6708967" lon="3.820645"><ele>206.0</ele><time>2026-04-06T08:48:01.481Z</time></trkpt><trkpt lat="47.6707483" lon="3.8205933"><ele>206.0</ele><time>2026-04-06T08:48:02.489Z</time></trkpt><trkpt lat="47.6705983" lon="3.8205383"><ele>206.0</ele><time>2026-04-06T08:48:03.479Z</time></trkpt><trkpt lat="47.670445" lon="3.820485"><ele>206.0</ele><time>2026-04-06T08:48:04.485Z</time></trkpt><trkpt lat="47.67029" lon="3.8204417"><ele>204.33333333333334</ele><time>2026-04-06T08:48:05.492Z</time></trkpt><trkpt lat="47.67013" lon="3.8204117"><ele>202.66666666666669</ele><time>2026-04-06T08:48:06.481Z</time></trkpt><trkpt lat="47.6699667" lon="3.82039"><ele>201.0</ele><time>2026-04-06T08:48:07.488Z</time></trkpt><trkpt lat="47.6698" lon="3.8203683"><ele>201.0</ele><time>2026-04-06T08:48:08.478Z</time></trkpt><trkpt lat="47.6696317" lon="3.8203467"><ele>201.0</ele><time>2026-04-06T08:48:09.485Z</time></trkpt><trkpt lat="47.6694683" lon="3.82032"><ele>201.0</ele><time>2026-04-06T08:48:10.475Z</time></trkpt><trkpt lat="47.6693117" lon="3.8202917"><ele>198.75</ele><time>2026-04-06T08:48:11.482Z</time></trkpt><trkpt lat="47.6691583" lon="3.8202567"><ele>196.5</ele><time>2026-04-06T08:48:12.488Z</time></trkpt><trkpt lat="47.66901" lon="3.8202183"><ele>194.25</ele><time>2026-04-06T08:48:13.477Z</time></trkpt><trkpt lat="47.66887" lon="3.82018"><ele>192.0</ele><time>2026-04-06T08:48:14.485Z</time></trkpt><trkpt lat="47.6687383" lon="3.8201367"><ele>187.66666666666666</ele><time>2026-04-06T08:48:15.475Z</time></trkpt><trkpt lat="47.6684833" lon="3.8200217"><ele>183.33333333333331</ele><time>2026-04-06T08:48:17.487Z</time></trkpt><trkpt lat="47.6683633" lon="3.819955"><ele>179.0</ele><time>2026-04-06T08:48:18.478Z</time></trkpt><trkpt lat="47.668255" lon="3.81988"><ele>179.0</ele><time>2026-04-06T08:48:19.484Z</time></trkpt><trkpt lat="47.6681533" lon="3.819795"><ele>179.0</ele><time>2026-04-06T08:48:20.474Z</time></trkpt><trkpt lat="47.6680583" lon="3.81971"><ele>179.0</ele><time>2026-04-06T08:48:21.481Z</time></trkpt><trkpt lat="47.6679633" lon="3.8196267"><ele>179.0</ele><time>2026-04-06T08:48:22.487Z</time></trkpt><trkpt lat="47.667875" lon="3.8195533"><ele>179.0</ele><time>2026-04-06T08:48:23.494Z</time></trkpt><trkpt lat="47.6677917" lon="3.819495"><ele>177.5</ele><time>2026-04-06T08:48:24.483Z</time></trkpt><trkpt lat="47.6677133" lon="3.819445"><ele>176.0</ele><time>2026-04-06T08:48:25.49Z</time></trkpt><trkpt lat="47.6676417" lon="3.8194033"><ele>174.5</ele><time>2026-04-06T08:48:26.48Z</time></trkpt><trkpt lat="47.6675417" lon="3.81935"><ele>173.0</ele><time>2026-04-06T08:48:28.494Z</time></trkpt><trkpt lat="47.667475" lon="3.819315"><ele>171.5</ele><time>2026-04-06T08:48:30.49Z</time></trkpt><trkpt lat="47.66744" lon="3.8192367"><ele>170.0</ele><time>2026-04-06T08:48:36.48Z</time></trkpt><trkpt lat="47.6674667" lon="3.8191033"><ele>170.0</ele><time>2026-04-06T08:48:38.493Z</time></trkpt><trkpt lat="47.6674967" lon="3.818925"><ele>170.0</ele><time>2026-04-06T08:48:40.489Z</time></trkpt><trkpt lat="47.6675233" lon="3.8188133"><ele>170.0</ele><time>2026-04-06T08:48:41.479Z</time></trkpt><trkpt lat="47.6675483" lon="3.8186883"><ele>170.0</ele><time>2026-04-06T08:48:42.486Z</time></trkpt><trkpt lat="47.6675717" lon="3.8185617"><ele>170.0</ele><time>2026-04-06T08:48:43.476Z</time></trkpt><trkpt lat="47.6675933" lon="3.8184217"><ele>170.0</ele><time>2026-04-06T08:48:44.481Z</time></trkpt><trkpt lat="47.6676183" lon="3.818275"><ele>170.0</ele><time>2026-04-06T08:48:45.489Z</time></trkpt><trkpt lat="47.6676433" lon="3.818125"><ele>170.0</ele><time>2026-04-06T08:48:46.479Z</time></trkpt><trkpt lat="47.6676667" lon="3.817985"><ele>170.0</ele><time>2026-04-06T08:48:47.485Z</time></trkpt><trkpt lat="47.6676917" lon="3.8178633"><ele>170.0</ele><time>2026-04-06T08:48:48.475Z</time></trkpt><trkpt lat="47.6677167" lon="3.8177617"><ele>170.0</ele><time>2026-04-06T08:48:49.482Z</time></trkpt><trkpt lat="47.66775" lon="3.8176817"><ele>170.0</ele><time>2026-04-06T08:48:50.489Z</time></trkpt><trkpt lat="47.66787" lon="3.81762"><ele>170.0</ele><time>2026-04-06T08:48:52.485Z</time></trkpt><trkpt lat="47.6679683" lon="3.81756"><ele>170.0</ele><time>2026-04-06T08:48:54.481Z</time></trkpt><trkpt lat="47.668015" lon="3.8174883"><ele>170.0</ele><time>2026-04-06T08:48:56.478Z</time></trkpt><trkpt lat="47.6679367" lon="3.817315"><ele>170.33333333333331</ele><time>2026-04-06T08:49:00.488Z</time></trkpt><trkpt lat="47.6678583" lon="3.8172733"><ele>170.66666666666666</ele><time>2026-04-06T08:49:02.483Z</time></trkpt><trkpt lat="47.6678067" lon="3.8172183"><ele>171.0</ele><time>2026-04-06T08:49:06.494Z</time></trkpt><trkpt lat="47.667765" lon="3.8173083"><ele>171.33333333333334</ele><time>2026-04-06T08:49:08.49Z</time></trkpt><trkpt lat="47.6677883" lon="3.8174583"><ele>171.66666666666669</ele><time>2026-04-06T08:49:12.484Z</time></trkpt><trkpt lat="47.6677033" lon="3.81753"><ele>172.0</ele><time>2026-04-06T08:52:40.487Z</time></trkpt><trkpt lat="47.6677417" lon="3.8174433"><ele>168.0</ele><time>2026-04-06T08:52:53.489Z</time></trkpt><trkpt lat="47.6678056" lon="3.8174298"><ele>172.0</ele><time>2026-04-06T08:56:52.75Z</time></trkpt><trkpt lat="47.6677724" lon="3.8173455"><ele>168.0</ele><time>2026-04-06T08:56:59.739Z</time></trkpt><trkpt lat="47.6677803" lon="3.8172503"><ele>172.0</ele><time>2026-04-06T08:57:11.801Z</time></trkpt><trkpt lat="47.6677339" lon="3.8171862"><ele>168.0</ele><time>2026-04-06T08:57:24.774Z</time></trkpt><trkpt lat="47.667755" lon="3.8172807"><ele>168.0</ele><time>2026-04-06T08:58:49.646Z</time></trkpt></trkseg></trk></gpx>